<?xml version="1.0" encoding="UTF-8" standalone="no" ?>
<gpx xmlns="http://www.topografix.com/GPX/1/1" xmlns:xsi="http://www.w3.org/2001/XMLSchema-instance" xsi:schemaLocation="http://www.topografix.com/GPX/1/1 http://www.topografix.com/GPX/1/1/gpx.xsd" version="1.1" creator="VisuGPX - https://www.visugpx.com">
  <metadata>
    <name>38 km quesmy 19/01/2014</name>
    <desc><![CDATA[balade boueuse à quesmy ]]></desc>
  </metadata>
  <wpt lat="49.72381" lon="3.0696">
    <ele>65.48</ele>
    <name><![CDATA[WPT_0000263]]></name>
    <desc><![CDATA[]]></desc>
    <type><![CDATA[Point de départ]]></type>
  </wpt>
  <wpt lat="49.72455" lon="3.06658">
    <ele>65.26</ele>
    <name><![CDATA[WPT_0000264]]></name>
    <desc><![CDATA[<br /><h3>Nom: Segment 1</h3><br /><p>Temps de départ: 01/19/2014 09:09</p><p>Temps d'arrivée: 01/19/2014 12:31</p><p>Distance: 38,2 km (03:22)</p><p>Temps déplacement: 02:23</p><p>Vitesse moyenne: 11,3 km/h</p><p>Vitesse moyenne: 16 km/h</p><p>Vitess Max.: 68,6 km/h</p><p>Altitude minimale: 56 m</p><p>Altitude maximale: 190 m</p><p>Vitesse d'élévation: 310,1 m/h</p><p>Vitesse de descente: -460,8 m/h</p><p>Gain Altitude: 394 m</p><p>Perte Altitude: -392 m</p><p>Temps d'élévation: 01:16</p><p>Temps de descente: 00:51</p>]]></desc>
    <type><![CDATA[Point d'arrivée]]></type>
  </wpt>
  <trk>
    <name><![CDATA[2014-01-19 09:09]]></name>
    <desc><![CDATA[<h1>OruxMaps</h1><br /><hr align="center" width="480" style="height: 2px; width: 517px"/><h2>Nom: 2014-01-19 09:09</h2><br /><p>Temps de départ: 01/19/2014 09:09</p><p>Temps d'arrivée: 01/19/2014 12:31</p><p>Distance: 38,2 km (03:22)</p><p>Temps déplacement: 02:23</p><p>Vitesse moyenne: 11,3 km/h</p><p>Vitesse moyenne: 16 km/h</p><p>Vitess Max.: 68,6 km/h</p><p>Altitude minimale: 56 m</p><p>Altitude maximale: 190 m</p><p>Vitesse d'élévation: 310,1 m/h</p><p>Vitesse de descente: -460,8 m/h</p><p>Gain Altitude: 394 m</p><p>Perte Altitude: -392 m</p><p>Temps d'élévation: 01:16</p><p>Temps de descente: 00:51</p><hr align="center" width="480" style="height: 2px; width: 517px"/>]]></desc>
    <trkseg>
      <trkpt lat="49.72381" lon="3.0696">
        <ele>65.48</ele>
        <time>2014-01-19T08:09:09Z</time>
      </trkpt>
      <trkpt lat="49.72452" lon="3.06678">
        <ele>65.55</ele>
        <time>2014-01-19T08:09:13Z</time>
      </trkpt>
      <trkpt lat="49.72433" lon="3.06657">
        <ele>64.97</ele>
        <time>2014-01-19T08:09:47Z</time>
      </trkpt>
      <trkpt lat="49.72412" lon="3.06655">
        <ele>64.73</ele>
        <time>2014-01-19T08:09:56Z</time>
      </trkpt>
      <trkpt lat="49.72388" lon="3.06654">
        <ele>64.75</ele>
        <time>2014-01-19T08:10:05Z</time>
      </trkpt>
      <trkpt lat="49.7236" lon="3.06656">
        <ele>64.82</ele>
        <time>2014-01-19T08:10:14Z</time>
      </trkpt>
      <trkpt lat="49.7234" lon="3.06682">
        <ele>65.01</ele>
        <time>2014-01-19T08:10:24Z</time>
      </trkpt>
      <trkpt lat="49.72338" lon="3.0673">
        <ele>65.04</ele>
        <time>2014-01-19T08:10:33Z</time>
      </trkpt>
      <trkpt lat="49.72323" lon="3.06763">
        <ele>65.12</ele>
        <time>2014-01-19T08:10:43Z</time>
      </trkpt>
      <trkpt lat="49.72301" lon="3.06763">
        <ele>65.04</ele>
        <time>2014-01-19T08:10:51Z</time>
      </trkpt>
      <trkpt lat="49.72272" lon="3.06766">
        <ele>64.91</ele>
        <time>2014-01-19T08:11:00Z</time>
      </trkpt>
      <trkpt lat="49.72251" lon="3.06802">
        <ele>64.39</ele>
        <time>2014-01-19T08:11:09Z</time>
      </trkpt>
      <trkpt lat="49.7224" lon="3.06843">
        <ele>63.57</ele>
        <time>2014-01-19T08:11:19Z</time>
      </trkpt>
      <trkpt lat="49.72232" lon="3.0688">
        <ele>63.15</ele>
        <time>2014-01-19T08:11:28Z</time>
      </trkpt>
      <trkpt lat="49.72222" lon="3.06922">
        <ele>63.02</ele>
        <time>2014-01-19T08:11:38Z</time>
      </trkpt>
      <trkpt lat="49.72213" lon="3.06959">
        <ele>63.06</ele>
        <time>2014-01-19T08:11:47Z</time>
      </trkpt>
      <trkpt lat="49.722" lon="3.06999">
        <ele>62.81</ele>
        <time>2014-01-19T08:11:56Z</time>
      </trkpt>
      <trkpt lat="49.72183" lon="3.07038">
        <ele>62.75</ele>
        <time>2014-01-19T08:12:05Z</time>
      </trkpt>
      <trkpt lat="49.72167" lon="3.07076">
        <ele>62.91</ele>
        <time>2014-01-19T08:12:14Z</time>
      </trkpt>
      <trkpt lat="49.72151" lon="3.07117">
        <ele>63.44</ele>
        <time>2014-01-19T08:12:23Z</time>
      </trkpt>
      <trkpt lat="49.72137" lon="3.07153">
        <ele>63.59</ele>
        <time>2014-01-19T08:12:32Z</time>
      </trkpt>
      <trkpt lat="49.72127" lon="3.07177">
        <ele>63.64</ele>
        <time>2014-01-19T08:12:37Z</time>
      </trkpt>
      <trkpt lat="49.72111" lon="3.07217">
        <ele>63.93</ele>
        <time>2014-01-19T08:12:46Z</time>
      </trkpt>
      <trkpt lat="49.72092" lon="3.07264">
        <ele>64.07</ele>
        <time>2014-01-19T08:12:56Z</time>
      </trkpt>
      <trkpt lat="49.72083" lon="3.07292">
        <ele>64.01</ele>
        <time>2014-01-19T08:13:01Z</time>
      </trkpt>
      <trkpt lat="49.72072" lon="3.07316">
        <ele>64.13</ele>
        <time>2014-01-19T08:13:06Z</time>
      </trkpt>
      <trkpt lat="49.72052" lon="3.07366">
        <ele>64.62</ele>
        <time>2014-01-19T08:13:15Z</time>
      </trkpt>
      <trkpt lat="49.72045" lon="3.07395">
        <ele>64.86</ele>
        <time>2014-01-19T08:13:20Z</time>
      </trkpt>
      <trkpt lat="49.72038" lon="3.07424">
        <ele>65.09</ele>
        <time>2014-01-19T08:13:25Z</time>
      </trkpt>
      <trkpt lat="49.72028" lon="3.07451">
        <ele>65.41</ele>
        <time>2014-01-19T08:13:30Z</time>
      </trkpt>
      <trkpt lat="49.72012" lon="3.07493">
        <ele>65.91</ele>
        <time>2014-01-19T08:13:39Z</time>
      </trkpt>
      <trkpt lat="49.72001" lon="3.07518">
        <ele>66</ele>
        <time>2014-01-19T08:13:44Z</time>
      </trkpt>
      <trkpt lat="49.7199" lon="3.07542">
        <ele>65.81</ele>
        <time>2014-01-19T08:13:49Z</time>
      </trkpt>
      <trkpt lat="49.71972" lon="3.07593">
        <ele>65.25</ele>
        <time>2014-01-19T08:13:58Z</time>
      </trkpt>
      <trkpt lat="49.71964" lon="3.07622">
        <ele>64.87</ele>
        <time>2014-01-19T08:14:03Z</time>
      </trkpt>
      <trkpt lat="49.71954" lon="3.0765">
        <ele>64.53</ele>
        <time>2014-01-19T08:14:08Z</time>
      </trkpt>
      <trkpt lat="49.7194" lon="3.07702">
        <ele>64.05</ele>
        <time>2014-01-19T08:14:17Z</time>
      </trkpt>
      <trkpt lat="49.71928" lon="3.07744">
        <ele>63.88</ele>
        <time>2014-01-19T08:14:26Z</time>
      </trkpt>
      <trkpt lat="49.71915" lon="3.07783">
        <ele>64.37</ele>
        <time>2014-01-19T08:14:35Z</time>
      </trkpt>
      <trkpt lat="49.71895" lon="3.07824">
        <ele>64.63</ele>
        <time>2014-01-19T08:14:44Z</time>
      </trkpt>
      <trkpt lat="49.71875" lon="3.07862">
        <ele>64.67</ele>
        <time>2014-01-19T08:14:53Z</time>
      </trkpt>
      <trkpt lat="49.71854" lon="3.07905">
        <ele>64.89</ele>
        <time>2014-01-19T08:15:02Z</time>
      </trkpt>
      <trkpt lat="49.71843" lon="3.07929">
        <ele>64.98</ele>
        <time>2014-01-19T08:15:07Z</time>
      </trkpt>
      <trkpt lat="49.71821" lon="3.07965">
        <ele>64.85</ele>
        <time>2014-01-19T08:15:15Z</time>
      </trkpt>
      <trkpt lat="49.71809" lon="3.07989">
        <ele>64.7</ele>
        <time>2014-01-19T08:15:20Z</time>
      </trkpt>
      <trkpt lat="49.71797" lon="3.08013">
        <ele>64.54</ele>
        <time>2014-01-19T08:15:25Z</time>
      </trkpt>
      <trkpt lat="49.7178" lon="3.08048">
        <ele>64.52</ele>
        <time>2014-01-19T08:15:33Z</time>
      </trkpt>
      <trkpt lat="49.71769" lon="3.08073">
        <ele>64.7</ele>
        <time>2014-01-19T08:15:38Z</time>
      </trkpt>
      <trkpt lat="49.7175" lon="3.08111">
        <ele>65.66</ele>
        <time>2014-01-19T08:15:47Z</time>
      </trkpt>
      <trkpt lat="49.71738" lon="3.08149">
        <ele>66.48</ele>
        <time>2014-01-19T08:15:56Z</time>
      </trkpt>
      <trkpt lat="49.71722" lon="3.08189">
        <ele>66.49</ele>
        <time>2014-01-19T08:16:05Z</time>
      </trkpt>
      <trkpt lat="49.71705" lon="3.08223">
        <ele>66.15</ele>
        <time>2014-01-19T08:16:14Z</time>
      </trkpt>
      <trkpt lat="49.71682" lon="3.08242">
        <ele>66.02</ele>
        <time>2014-01-19T08:16:23Z</time>
      </trkpt>
      <trkpt lat="49.71655" lon="3.0824">
        <ele>65.75</ele>
        <time>2014-01-19T08:16:32Z</time>
      </trkpt>
      <trkpt lat="49.71627" lon="3.08237">
        <ele>65.2</ele>
        <time>2014-01-19T08:16:41Z</time>
      </trkpt>
      <trkpt lat="49.71598" lon="3.08238">
        <ele>64.59</ele>
        <time>2014-01-19T08:16:50Z</time>
      </trkpt>
      <trkpt lat="49.71561" lon="3.08234">
        <ele>64.55</ele>
        <time>2014-01-19T08:17:00Z</time>
      </trkpt>
      <trkpt lat="49.71543" lon="3.08233">
        <ele>64.7</ele>
        <time>2014-01-19T08:17:05Z</time>
      </trkpt>
      <trkpt lat="49.71506" lon="3.08229">
        <ele>64.97</ele>
        <time>2014-01-19T08:17:14Z</time>
      </trkpt>
      <trkpt lat="49.71484" lon="3.08229">
        <ele>64.81</ele>
        <time>2014-01-19T08:17:19Z</time>
      </trkpt>
      <trkpt lat="49.71446" lon="3.08233">
        <ele>64.35</ele>
        <time>2014-01-19T08:17:28Z</time>
      </trkpt>
      <trkpt lat="49.71428" lon="3.08234">
        <ele>64.13</ele>
        <time>2014-01-19T08:17:32Z</time>
      </trkpt>
      <trkpt lat="49.71406" lon="3.08235">
        <ele>64.13</ele>
        <time>2014-01-19T08:17:37Z</time>
      </trkpt>
      <trkpt lat="49.71373" lon="3.08242">
        <ele>64.52</ele>
        <time>2014-01-19T08:17:46Z</time>
      </trkpt>
      <trkpt lat="49.71343" lon="3.08263">
        <ele>65.04</ele>
        <time>2014-01-19T08:17:55Z</time>
      </trkpt>
      <trkpt lat="49.7132" lon="3.08293">
        <ele>65.27</ele>
        <time>2014-01-19T08:18:03Z</time>
      </trkpt>
      <trkpt lat="49.71303" lon="3.08314">
        <ele>65.12</ele>
        <time>2014-01-19T08:18:08Z</time>
      </trkpt>
      <trkpt lat="49.71289" lon="3.08336">
        <ele>64.95</ele>
        <time>2014-01-19T08:18:13Z</time>
      </trkpt>
      <trkpt lat="49.71259" lon="3.08361">
        <ele>64.77</ele>
        <time>2014-01-19T08:18:22Z</time>
      </trkpt>
      <trkpt lat="49.71241" lon="3.08366">
        <ele>64.96</ele>
        <time>2014-01-19T08:18:27Z</time>
      </trkpt>
      <trkpt lat="49.71206" lon="3.08379">
        <ele>65.86</ele>
        <time>2014-01-19T08:18:37Z</time>
      </trkpt>
      <trkpt lat="49.71179" lon="3.08387">
        <ele>66.43</ele>
        <time>2014-01-19T08:18:45Z</time>
      </trkpt>
      <trkpt lat="49.71148" lon="3.08399">
        <ele>66.56</ele>
        <time>2014-01-19T08:18:55Z</time>
      </trkpt>
      <trkpt lat="49.71116" lon="3.08407">
        <ele>66.27</ele>
        <time>2014-01-19T08:19:04Z</time>
      </trkpt>
      <trkpt lat="49.71082" lon="3.08413">
        <ele>65.97</ele>
        <time>2014-01-19T08:19:14Z</time>
      </trkpt>
      <trkpt lat="49.71063" lon="3.08417">
        <ele>66.25</ele>
        <time>2014-01-19T08:19:19Z</time>
      </trkpt>
      <trkpt lat="49.71031" lon="3.0843">
        <ele>66.8</ele>
        <time>2014-01-19T08:19:28Z</time>
      </trkpt>
      <trkpt lat="49.70996" lon="3.08443">
        <ele>67.34</ele>
        <time>2014-01-19T08:19:37Z</time>
      </trkpt>
      <trkpt lat="49.70961" lon="3.08458">
        <ele>67.73</ele>
        <time>2014-01-19T08:19:46Z</time>
      </trkpt>
      <trkpt lat="49.70927" lon="3.08468">
        <ele>68.15</ele>
        <time>2014-01-19T08:19:55Z</time>
      </trkpt>
      <trkpt lat="49.709" lon="3.08474">
        <ele>68.29</ele>
        <time>2014-01-19T08:20:03Z</time>
      </trkpt>
      <trkpt lat="49.70882" lon="3.08476">
        <ele>68.25</ele>
        <time>2014-01-19T08:20:08Z</time>
      </trkpt>
      <trkpt lat="49.70853" lon="3.0848">
        <ele>68.12</ele>
        <time>2014-01-19T08:20:17Z</time>
      </trkpt>
      <trkpt lat="49.70824" lon="3.08487">
        <ele>68.1</ele>
        <time>2014-01-19T08:20:26Z</time>
      </trkpt>
      <trkpt lat="49.70794" lon="3.08488">
        <ele>68.41</ele>
        <time>2014-01-19T08:20:35Z</time>
      </trkpt>
      <trkpt lat="49.70761" lon="3.08488">
        <ele>68.74</ele>
        <time>2014-01-19T08:20:44Z</time>
      </trkpt>
      <trkpt lat="49.70731" lon="3.08486">
        <ele>68.83</ele>
        <time>2014-01-19T08:20:53Z</time>
      </trkpt>
      <trkpt lat="49.70697" lon="3.08482">
        <ele>68.78</ele>
        <time>2014-01-19T08:21:02Z</time>
      </trkpt>
      <trkpt lat="49.70676" lon="3.0848">
        <ele>68.76</ele>
        <time>2014-01-19T08:21:07Z</time>
      </trkpt>
      <trkpt lat="49.70656" lon="3.08477">
        <ele>68.85</ele>
        <time>2014-01-19T08:21:12Z</time>
      </trkpt>
      <trkpt lat="49.70624" lon="3.08467">
        <ele>69.12</ele>
        <time>2014-01-19T08:21:21Z</time>
      </trkpt>
      <trkpt lat="49.70593" lon="3.0846">
        <ele>69.4</ele>
        <time>2014-01-19T08:21:30Z</time>
      </trkpt>
      <trkpt lat="49.70574" lon="3.08452">
        <ele>69.54</ele>
        <time>2014-01-19T08:21:35Z</time>
      </trkpt>
      <trkpt lat="49.7054" lon="3.08437">
        <ele>69.77</ele>
        <time>2014-01-19T08:21:44Z</time>
      </trkpt>
      <trkpt lat="49.70509" lon="3.0842">
        <ele>69.93</ele>
        <time>2014-01-19T08:21:53Z</time>
      </trkpt>
      <trkpt lat="49.70478" lon="3.08402">
        <ele>69.37</ele>
        <time>2014-01-19T08:22:02Z</time>
      </trkpt>
      <trkpt lat="49.7046" lon="3.08387">
        <ele>68.8</ele>
        <time>2014-01-19T08:22:07Z</time>
      </trkpt>
      <trkpt lat="49.70452" lon="3.08362">
        <ele>68.1</ele>
        <time>2014-01-19T08:22:11Z</time>
      </trkpt>
      <trkpt lat="49.70456" lon="3.08332">
        <ele>67.46</ele>
        <time>2014-01-19T08:22:15Z</time>
      </trkpt>
      <trkpt lat="49.70464" lon="3.08297">
        <ele>67.31</ele>
        <time>2014-01-19T08:22:20Z</time>
      </trkpt>
      <trkpt lat="49.70475" lon="3.08262">
        <ele>67.1</ele>
        <time>2014-01-19T08:22:25Z</time>
      </trkpt>
      <trkpt lat="49.7049" lon="3.0823">
        <ele>66.76</ele>
        <time>2014-01-19T08:22:30Z</time>
      </trkpt>
      <trkpt lat="49.70501" lon="3.08204">
        <ele>66.44</ele>
        <time>2014-01-19T08:22:34Z</time>
      </trkpt>
      <trkpt lat="49.70513" lon="3.08169">
        <ele>66.02</ele>
        <time>2014-01-19T08:22:39Z</time>
      </trkpt>
      <trkpt lat="49.70522" lon="3.08133">
        <ele>66.3</ele>
        <time>2014-01-19T08:22:44Z</time>
      </trkpt>
      <trkpt lat="49.7053" lon="3.08101">
        <ele>66.51</ele>
        <time>2014-01-19T08:22:49Z</time>
      </trkpt>
      <trkpt lat="49.70543" lon="3.08053">
        <ele>66.12</ele>
        <time>2014-01-19T08:22:57Z</time>
      </trkpt>
      <trkpt lat="49.70547" lon="3.08023">
        <ele>65.71</ele>
        <time>2014-01-19T08:23:02Z</time>
      </trkpt>
      <trkpt lat="49.7054" lon="3.07992">
        <ele>65.66</ele>
        <time>2014-01-19T08:23:07Z</time>
      </trkpt>
      <trkpt lat="49.70524" lon="3.07943">
        <ele>66.6</ele>
        <time>2014-01-19T08:23:15Z</time>
      </trkpt>
      <trkpt lat="49.70514" lon="3.07913">
        <ele>66.99</ele>
        <time>2014-01-19T08:23:20Z</time>
      </trkpt>
      <trkpt lat="49.705" lon="3.07859">
        <ele>67</ele>
        <time>2014-01-19T08:23:29Z</time>
      </trkpt>
      <trkpt lat="49.70493" lon="3.07804">
        <ele>67.03</ele>
        <time>2014-01-19T08:23:38Z</time>
      </trkpt>
      <trkpt lat="49.70491" lon="3.07773">
        <ele>67.08</ele>
        <time>2014-01-19T08:23:43Z</time>
      </trkpt>
      <trkpt lat="49.70487" lon="3.07723">
        <ele>66.88</ele>
        <time>2014-01-19T08:23:51Z</time>
      </trkpt>
      <trkpt lat="49.70482" lon="3.07663">
        <ele>66.46</ele>
        <time>2014-01-19T08:24:00Z</time>
      </trkpt>
      <trkpt lat="49.70479" lon="3.07613">
        <ele>66.98</ele>
        <time>2014-01-19T08:24:08Z</time>
      </trkpt>
      <trkpt lat="49.70477" lon="3.07581">
        <ele>67.3</ele>
        <time>2014-01-19T08:24:13Z</time>
      </trkpt>
      <trkpt lat="49.70473" lon="3.0753">
        <ele>67.76</ele>
        <time>2014-01-19T08:24:21Z</time>
      </trkpt>
      <trkpt lat="49.70472" lon="3.07497">
        <ele>67.99</ele>
        <time>2014-01-19T08:24:26Z</time>
      </trkpt>
      <trkpt lat="49.70469" lon="3.07442">
        <ele>67.74</ele>
        <time>2014-01-19T08:24:35Z</time>
      </trkpt>
      <trkpt lat="49.70467" lon="3.07386">
        <ele>67.38</ele>
        <time>2014-01-19T08:24:44Z</time>
      </trkpt>
      <trkpt lat="49.70464" lon="3.07354">
        <ele>67.14</ele>
        <time>2014-01-19T08:24:49Z</time>
      </trkpt>
      <trkpt lat="49.70461" lon="3.073">
        <ele>67</ele>
        <time>2014-01-19T08:24:57Z</time>
      </trkpt>
      <trkpt lat="49.7046" lon="3.07268">
        <ele>67</ele>
        <time>2014-01-19T08:25:02Z</time>
      </trkpt>
      <trkpt lat="49.70458" lon="3.07213">
        <ele>67</ele>
        <time>2014-01-19T08:25:10Z</time>
      </trkpt>
      <trkpt lat="49.70436" lon="3.07197">
        <ele>67.34</ele>
        <time>2014-01-19T08:25:20Z</time>
      </trkpt>
      <trkpt lat="49.7042" lon="3.07213">
        <ele>67.41</ele>
        <time>2014-01-19T08:25:25Z</time>
      </trkpt>
      <trkpt lat="49.70393" lon="3.07239">
        <ele>67.1</ele>
        <time>2014-01-19T08:25:33Z</time>
      </trkpt>
      <trkpt lat="49.70375" lon="3.07256">
        <ele>67.04</ele>
        <time>2014-01-19T08:25:38Z</time>
      </trkpt>
      <trkpt lat="49.70356" lon="3.0727">
        <ele>67.18</ele>
        <time>2014-01-19T08:25:43Z</time>
      </trkpt>
      <trkpt lat="49.70328" lon="3.07298">
        <ele>67.7</ele>
        <time>2014-01-19T08:25:51Z</time>
      </trkpt>
      <trkpt lat="49.7031" lon="3.07314">
        <ele>68.33</ele>
        <time>2014-01-19T08:25:56Z</time>
      </trkpt>
      <trkpt lat="49.70282" lon="3.07339">
        <ele>69.23</ele>
        <time>2014-01-19T08:26:04Z</time>
      </trkpt>
      <trkpt lat="49.70265" lon="3.07355">
        <ele>69.63</ele>
        <time>2014-01-19T08:26:09Z</time>
      </trkpt>
      <trkpt lat="49.70249" lon="3.07372">
        <ele>70.02</ele>
        <time>2014-01-19T08:26:14Z</time>
      </trkpt>
      <trkpt lat="49.70233" lon="3.07389">
        <ele>70.21</ele>
        <time>2014-01-19T08:26:19Z</time>
      </trkpt>
      <trkpt lat="49.70203" lon="3.07409">
        <ele>70.56</ele>
        <time>2014-01-19T08:26:28Z</time>
      </trkpt>
      <trkpt lat="49.70187" lon="3.07424">
        <ele>70.76</ele>
        <time>2014-01-19T08:26:33Z</time>
      </trkpt>
      <trkpt lat="49.70171" lon="3.0744">
        <ele>70.95</ele>
        <time>2014-01-19T08:26:38Z</time>
      </trkpt>
      <trkpt lat="49.7016" lon="3.07463">
        <ele>71.08</ele>
        <time>2014-01-19T08:26:43Z</time>
      </trkpt>
      <trkpt lat="49.70144" lon="3.07513">
        <ele>71.17</ele>
        <time>2014-01-19T08:26:52Z</time>
      </trkpt>
      <trkpt lat="49.70129" lon="3.07531">
        <ele>71.25</ele>
        <time>2014-01-19T08:26:57Z</time>
      </trkpt>
      <trkpt lat="49.70113" lon="3.07549">
        <ele>71.44</ele>
        <time>2014-01-19T08:27:02Z</time>
      </trkpt>
      <trkpt lat="49.70096" lon="3.07559">
        <ele>71.74</ele>
        <time>2014-01-19T08:27:07Z</time>
      </trkpt>
      <trkpt lat="49.70069" lon="3.07577">
        <ele>71.84</ele>
        <time>2014-01-19T08:27:15Z</time>
      </trkpt>
      <trkpt lat="49.70037" lon="3.076">
        <ele>71.16</ele>
        <time>2014-01-19T08:27:24Z</time>
      </trkpt>
      <trkpt lat="49.70017" lon="3.07613">
        <ele>70.77</ele>
        <time>2014-01-19T08:27:29Z</time>
      </trkpt>
      <trkpt lat="49.6998" lon="3.07639">
        <ele>70.5</ele>
        <time>2014-01-19T08:27:38Z</time>
      </trkpt>
      <trkpt lat="49.69962" lon="3.07648">
        <ele>70.58</ele>
        <time>2014-01-19T08:27:42Z</time>
      </trkpt>
      <trkpt lat="49.6993" lon="3.0767">
        <ele>70.81</ele>
        <time>2014-01-19T08:27:50Z</time>
      </trkpt>
      <trkpt lat="49.6991" lon="3.07684">
        <ele>70.95</ele>
        <time>2014-01-19T08:27:55Z</time>
      </trkpt>
      <trkpt lat="49.69876" lon="3.07708">
        <ele>71.47</ele>
        <time>2014-01-19T08:28:04Z</time>
      </trkpt>
      <trkpt lat="49.6986" lon="3.07725">
        <ele>71.67</ele>
        <time>2014-01-19T08:28:09Z</time>
      </trkpt>
      <trkpt lat="49.69842" lon="3.07741">
        <ele>71.91</ele>
        <time>2014-01-19T08:28:14Z</time>
      </trkpt>
      <trkpt lat="49.69826" lon="3.07755">
        <ele>72.25</ele>
        <time>2014-01-19T08:28:19Z</time>
      </trkpt>
      <trkpt lat="49.69796" lon="3.07782">
        <ele>73.46</ele>
        <time>2014-01-19T08:28:28Z</time>
      </trkpt>
      <trkpt lat="49.69779" lon="3.07796">
        <ele>74.21</ele>
        <time>2014-01-19T08:28:33Z</time>
      </trkpt>
      <trkpt lat="49.69764" lon="3.07811">
        <ele>75.01</ele>
        <time>2014-01-19T08:28:38Z</time>
      </trkpt>
      <trkpt lat="49.69739" lon="3.07832">
        <ele>76.37</ele>
        <time>2014-01-19T08:28:47Z</time>
      </trkpt>
      <trkpt lat="49.69715" lon="3.07851">
        <ele>77.4</ele>
        <time>2014-01-19T08:28:56Z</time>
      </trkpt>
      <trkpt lat="49.69693" lon="3.07872">
        <ele>78.19</ele>
        <time>2014-01-19T08:29:05Z</time>
      </trkpt>
      <trkpt lat="49.69668" lon="3.07895">
        <ele>78.98</ele>
        <time>2014-01-19T08:29:15Z</time>
      </trkpt>
      <trkpt lat="49.69645" lon="3.07916">
        <ele>79.53</ele>
        <time>2014-01-19T08:29:25Z</time>
      </trkpt>
      <trkpt lat="49.69618" lon="3.07915">
        <ele>80.18</ele>
        <time>2014-01-19T08:29:34Z</time>
      </trkpt>
      <trkpt lat="49.6959" lon="3.07888">
        <ele>80.84</ele>
        <time>2014-01-19T08:29:44Z</time>
      </trkpt>
      <trkpt lat="49.69563" lon="3.07868">
        <ele>81.24</ele>
        <time>2014-01-19T08:29:53Z</time>
      </trkpt>
      <trkpt lat="49.69537" lon="3.07847">
        <ele>81.56</ele>
        <time>2014-01-19T08:30:02Z</time>
      </trkpt>
      <trkpt lat="49.6951" lon="3.07826">
        <ele>82.02</ele>
        <time>2014-01-19T08:30:11Z</time>
      </trkpt>
      <trkpt lat="49.69484" lon="3.07812">
        <ele>82.86</ele>
        <time>2014-01-19T08:30:20Z</time>
      </trkpt>
      <trkpt lat="49.69451" lon="3.07807">
        <ele>83.62</ele>
        <time>2014-01-19T08:30:30Z</time>
      </trkpt>
      <trkpt lat="49.69423" lon="3.07804">
        <ele>84.23</ele>
        <time>2014-01-19T08:30:39Z</time>
      </trkpt>
      <trkpt lat="49.69396" lon="3.07803">
        <ele>85.54</ele>
        <time>2014-01-19T08:30:48Z</time>
      </trkpt>
      <trkpt lat="49.69368" lon="3.07801">
        <ele>87.1</ele>
        <time>2014-01-19T08:30:57Z</time>
      </trkpt>
      <trkpt lat="49.69347" lon="3.07803">
        <ele>88.24</ele>
        <time>2014-01-19T08:31:07Z</time>
      </trkpt>
      <trkpt lat="49.69329" lon="3.07825">
        <ele>89.06</ele>
        <time>2014-01-19T08:31:39Z</time>
      </trkpt>
      <trkpt lat="49.69298" lon="3.07853">
        <ele>89.06</ele>
        <time>2014-01-19T08:31:49Z</time>
      </trkpt>
      <trkpt lat="49.6927" lon="3.07883">
        <ele>89.02</ele>
        <time>2014-01-19T08:31:58Z</time>
      </trkpt>
      <trkpt lat="49.69252" lon="3.0789">
        <ele>89.29</ele>
        <time>2014-01-19T08:32:03Z</time>
      </trkpt>
      <trkpt lat="49.69232" lon="3.0789">
        <ele>89.04</ele>
        <time>2014-01-19T08:32:08Z</time>
      </trkpt>
      <trkpt lat="49.69202" lon="3.07908">
        <ele>88.46</ele>
        <time>2014-01-19T08:32:17Z</time>
      </trkpt>
      <trkpt lat="49.69186" lon="3.07956">
        <ele>88.48</ele>
        <time>2014-01-19T08:32:26Z</time>
      </trkpt>
      <trkpt lat="49.6917" lon="3.07999">
        <ele>88.95</ele>
        <time>2014-01-19T08:32:35Z</time>
      </trkpt>
      <trkpt lat="49.69155" lon="3.08041">
        <ele>89.14</ele>
        <time>2014-01-19T08:32:44Z</time>
      </trkpt>
      <trkpt lat="49.69142" lon="3.08083">
        <ele>89.29</ele>
        <time>2014-01-19T08:32:53Z</time>
      </trkpt>
      <trkpt lat="49.69129" lon="3.08129">
        <ele>89.5</ele>
        <time>2014-01-19T08:33:02Z</time>
      </trkpt>
      <trkpt lat="49.69121" lon="3.08156">
        <ele>89.46</ele>
        <time>2014-01-19T08:33:07Z</time>
      </trkpt>
      <trkpt lat="49.69107" lon="3.08196">
        <ele>89.29</ele>
        <time>2014-01-19T08:33:15Z</time>
      </trkpt>
      <trkpt lat="49.69089" lon="3.08243">
        <ele>89.07</ele>
        <time>2014-01-19T08:33:25Z</time>
      </trkpt>
      <trkpt lat="49.6908" lon="3.08267">
        <ele>89.01</ele>
        <time>2014-01-19T08:33:30Z</time>
      </trkpt>
      <trkpt lat="49.69064" lon="3.08313">
        <ele>89.18</ele>
        <time>2014-01-19T08:33:39Z</time>
      </trkpt>
      <trkpt lat="49.69054" lon="3.0834">
        <ele>89.41</ele>
        <time>2014-01-19T08:33:44Z</time>
      </trkpt>
      <trkpt lat="49.69043" lon="3.08365">
        <ele>89.68</ele>
        <time>2014-01-19T08:33:49Z</time>
      </trkpt>
      <trkpt lat="49.69019" lon="3.08402">
        <ele>89.96</ele>
        <time>2014-01-19T08:33:58Z</time>
      </trkpt>
      <trkpt lat="49.69005" lon="3.08423">
        <ele>90</ele>
        <time>2014-01-19T08:34:03Z</time>
      </trkpt>
      <trkpt lat="49.68992" lon="3.08445">
        <ele>90</ele>
        <time>2014-01-19T08:34:08Z</time>
      </trkpt>
      <trkpt lat="49.68978" lon="3.08464">
        <ele>90</ele>
        <time>2014-01-19T08:34:13Z</time>
      </trkpt>
      <trkpt lat="49.68956" lon="3.08496">
        <ele>90</ele>
        <time>2014-01-19T08:34:21Z</time>
      </trkpt>
      <trkpt lat="49.68942" lon="3.08515">
        <ele>90.18</ele>
        <time>2014-01-19T08:34:26Z</time>
      </trkpt>
      <trkpt lat="49.6892" lon="3.08549">
        <ele>90.58</ele>
        <time>2014-01-19T08:34:35Z</time>
      </trkpt>
      <trkpt lat="49.68898" lon="3.08588">
        <ele>91.05</ele>
        <time>2014-01-19T08:34:44Z</time>
      </trkpt>
      <trkpt lat="49.68884" lon="3.08608">
        <ele>91.3</ele>
        <time>2014-01-19T08:34:49Z</time>
      </trkpt>
      <trkpt lat="49.68861" lon="3.08636">
        <ele>91.64</ele>
        <time>2014-01-19T08:34:57Z</time>
      </trkpt>
      <trkpt lat="49.68846" lon="3.08653">
        <ele>91.84</ele>
        <time>2014-01-19T08:35:02Z</time>
      </trkpt>
      <trkpt lat="49.68817" lon="3.08673">
        <ele>92.06</ele>
        <time>2014-01-19T08:35:11Z</time>
      </trkpt>
      <trkpt lat="49.68793" lon="3.08666">
        <ele>92</ele>
        <time>2014-01-19T08:35:20Z</time>
      </trkpt>
      <trkpt lat="49.68782" lon="3.08642">
        <ele>91.89</ele>
        <time>2014-01-19T08:35:25Z</time>
      </trkpt>
      <trkpt lat="49.6877" lon="3.08593">
        <ele>91.79</ele>
        <time>2014-01-19T08:35:35Z</time>
      </trkpt>
      <trkpt lat="49.68751" lon="3.08548">
        <ele>92.4</ele>
        <time>2014-01-19T08:35:44Z</time>
      </trkpt>
      <trkpt lat="49.68736" lon="3.08529">
        <ele>92.66</ele>
        <time>2014-01-19T08:35:49Z</time>
      </trkpt>
      <trkpt lat="49.68712" lon="3.08498">
        <ele>92.97</ele>
        <time>2014-01-19T08:35:58Z</time>
      </trkpt>
      <trkpt lat="49.68691" lon="3.08478">
        <ele>92.43</ele>
        <time>2014-01-19T08:36:03Z</time>
      </trkpt>
      <trkpt lat="49.68673" lon="3.0846">
        <ele>91.66</ele>
        <time>2014-01-19T08:36:08Z</time>
      </trkpt>
      <trkpt lat="49.68656" lon="3.08447">
        <ele>90.85</ele>
        <time>2014-01-19T08:36:13Z</time>
      </trkpt>
      <trkpt lat="49.6863" lon="3.08458">
        <ele>90.62</ele>
        <time>2014-01-19T08:36:23Z</time>
      </trkpt>
      <trkpt lat="49.6861" lon="3.0847">
        <ele>90.38</ele>
        <time>2014-01-19T08:36:28Z</time>
      </trkpt>
      <trkpt lat="49.68591" lon="3.0848">
        <ele>89.97</ele>
        <time>2014-01-19T08:36:32Z</time>
      </trkpt>
      <trkpt lat="49.68569" lon="3.08491">
        <ele>90.4</ele>
        <time>2014-01-19T08:36:36Z</time>
      </trkpt>
      <trkpt lat="49.68543" lon="3.08499">
        <ele>91.42</ele>
        <time>2014-01-19T08:36:40Z</time>
      </trkpt>
      <trkpt lat="49.68516" lon="3.0851">
        <ele>92.42</ele>
        <time>2014-01-19T08:36:45Z</time>
      </trkpt>
      <trkpt lat="49.68495" lon="3.08511">
        <ele>92.89</ele>
        <time>2014-01-19T08:36:50Z</time>
      </trkpt>
      <trkpt lat="49.68464" lon="3.08509">
        <ele>92.13</ele>
        <time>2014-01-19T08:37:00Z</time>
      </trkpt>
      <trkpt lat="49.68442" lon="3.08494">
        <ele>91.57</ele>
        <time>2014-01-19T08:37:09Z</time>
      </trkpt>
      <trkpt lat="49.68419" lon="3.08473">
        <ele>91.04</ele>
        <time>2014-01-19T08:37:19Z</time>
      </trkpt>
      <trkpt lat="49.68399" lon="3.08452">
        <ele>90.57</ele>
        <time>2014-01-19T08:37:27Z</time>
      </trkpt>
      <trkpt lat="49.68374" lon="3.0842">
        <ele>89.98</ele>
        <time>2014-01-19T08:37:37Z</time>
      </trkpt>
      <trkpt lat="49.68353" lon="3.0839">
        <ele>88.74</ele>
        <time>2014-01-19T08:37:45Z</time>
      </trkpt>
      <trkpt lat="49.68339" lon="3.08371">
        <ele>87.99</ele>
        <time>2014-01-19T08:37:50Z</time>
      </trkpt>
      <trkpt lat="49.68325" lon="3.0835">
        <ele>87.65</ele>
        <time>2014-01-19T08:37:55Z</time>
      </trkpt>
      <trkpt lat="49.68306" lon="3.08322">
        <ele>87.91</ele>
        <time>2014-01-19T08:38:03Z</time>
      </trkpt>
      <trkpt lat="49.6828" lon="3.08289">
        <ele>88.25</ele>
        <time>2014-01-19T08:38:13Z</time>
      </trkpt>
      <trkpt lat="49.68254" lon="3.08268">
        <ele>88.37</ele>
        <time>2014-01-19T08:38:21Z</time>
      </trkpt>
      <trkpt lat="49.68237" lon="3.08254">
        <ele>88.73</ele>
        <time>2014-01-19T08:38:26Z</time>
      </trkpt>
      <trkpt lat="49.68209" lon="3.08231">
        <ele>89.88</ele>
        <time>2014-01-19T08:38:35Z</time>
      </trkpt>
      <trkpt lat="49.68182" lon="3.08206">
        <ele>90.82</ele>
        <time>2014-01-19T08:38:44Z</time>
      </trkpt>
      <trkpt lat="49.68166" lon="3.08193">
        <ele>91.32</ele>
        <time>2014-01-19T08:38:49Z</time>
      </trkpt>
      <trkpt lat="49.68146" lon="3.08172">
        <ele>91.08</ele>
        <time>2014-01-19T08:38:57Z</time>
      </trkpt>
      <trkpt lat="49.68126" lon="3.08146">
        <ele>91</ele>
        <time>2014-01-19T08:39:07Z</time>
      </trkpt>
      <trkpt lat="49.68107" lon="3.08123">
        <ele>91.23</ele>
        <time>2014-01-19T08:39:16Z</time>
      </trkpt>
      <trkpt lat="49.68087" lon="3.08098">
        <ele>91.75</ele>
        <time>2014-01-19T08:39:25Z</time>
      </trkpt>
      <trkpt lat="49.68072" lon="3.08074">
        <ele>92.15</ele>
        <time>2014-01-19T08:39:33Z</time>
      </trkpt>
      <trkpt lat="49.68052" lon="3.08043">
        <ele>92.08</ele>
        <time>2014-01-19T08:39:43Z</time>
      </trkpt>
      <trkpt lat="49.68034" lon="3.08016">
        <ele>91.89</ele>
        <time>2014-01-19T08:39:51Z</time>
      </trkpt>
      <trkpt lat="49.68014" lon="3.07986">
        <ele>91.64</ele>
        <time>2014-01-19T08:40:00Z</time>
      </trkpt>
      <trkpt lat="49.67991" lon="3.07955">
        <ele>91.31</ele>
        <time>2014-01-19T08:40:10Z</time>
      </trkpt>
      <trkpt lat="49.67974" lon="3.07935">
        <ele>90.84</ele>
        <time>2014-01-19T08:40:19Z</time>
      </trkpt>
      <trkpt lat="49.6796" lon="3.07914">
        <ele>90.49</ele>
        <time>2014-01-19T08:40:28Z</time>
      </trkpt>
      <trkpt lat="49.67941" lon="3.07891">
        <ele>90.11</ele>
        <time>2014-01-19T08:40:41Z</time>
      </trkpt>
      <trkpt lat="49.67929" lon="3.07871">
        <ele>89.99</ele>
        <time>2014-01-19T08:40:50Z</time>
      </trkpt>
      <trkpt lat="49.6791" lon="3.07843">
        <ele>89.91</ele>
        <time>2014-01-19T08:41:03Z</time>
      </trkpt>
      <trkpt lat="49.67895" lon="3.07821">
        <ele>89.67</ele>
        <time>2014-01-19T08:41:13Z</time>
      </trkpt>
      <trkpt lat="49.67878" lon="3.07795">
        <ele>89.5</ele>
        <time>2014-01-19T08:41:26Z</time>
      </trkpt>
      <trkpt lat="49.67862" lon="3.07773">
        <ele>89.57</ele>
        <time>2014-01-19T08:41:39Z</time>
      </trkpt>
      <trkpt lat="49.67848" lon="3.0775">
        <ele>89.82</ele>
        <time>2014-01-19T08:41:49Z</time>
      </trkpt>
      <trkpt lat="49.67835" lon="3.07727">
        <ele>89.44</ele>
        <time>2014-01-19T08:41:59Z</time>
      </trkpt>
      <trkpt lat="49.6782" lon="3.07707">
        <ele>88.89</ele>
        <time>2014-01-19T08:42:08Z</time>
      </trkpt>
      <trkpt lat="49.67805" lon="3.07689">
        <ele>88.44</ele>
        <time>2014-01-19T08:42:17Z</time>
      </trkpt>
      <trkpt lat="49.67789" lon="3.07667">
        <ele>88.01</ele>
        <time>2014-01-19T08:42:27Z</time>
      </trkpt>
      <trkpt lat="49.67773" lon="3.07646">
        <ele>87.93</ele>
        <time>2014-01-19T08:42:37Z</time>
      </trkpt>
      <trkpt lat="49.67753" lon="3.07616">
        <ele>87.98</ele>
        <time>2014-01-19T08:42:50Z</time>
      </trkpt>
      <trkpt lat="49.67739" lon="3.07595">
        <ele>87.87</ele>
        <time>2014-01-19T08:42:59Z</time>
      </trkpt>
      <trkpt lat="49.67718" lon="3.07568">
        <ele>87.46</ele>
        <time>2014-01-19T08:48:26Z</time>
      </trkpt>
      <trkpt lat="49.67704" lon="3.07549">
        <ele>87.31</ele>
        <time>2014-01-19T08:48:31Z</time>
      </trkpt>
      <trkpt lat="49.67685" lon="3.07525">
        <ele>87.46</ele>
        <time>2014-01-19T08:48:40Z</time>
      </trkpt>
      <trkpt lat="49.67666" lon="3.07496">
        <ele>87.99</ele>
        <time>2014-01-19T08:48:50Z</time>
      </trkpt>
      <trkpt lat="49.67651" lon="3.07474">
        <ele>87.62</ele>
        <time>2014-01-19T08:48:59Z</time>
      </trkpt>
      <trkpt lat="49.67632" lon="3.07449">
        <ele>87.18</ele>
        <time>2014-01-19T08:49:08Z</time>
      </trkpt>
      <trkpt lat="49.67616" lon="3.07426">
        <ele>86.79</ele>
        <time>2014-01-19T08:49:17Z</time>
      </trkpt>
      <trkpt lat="49.67599" lon="3.07403">
        <ele>86.62</ele>
        <time>2014-01-19T08:49:26Z</time>
      </trkpt>
      <trkpt lat="49.67584" lon="3.0738">
        <ele>86.88</ele>
        <time>2014-01-19T08:49:35Z</time>
      </trkpt>
      <trkpt lat="49.67568" lon="3.07355">
        <ele>87.47</ele>
        <time>2014-01-19T08:49:44Z</time>
      </trkpt>
      <trkpt lat="49.67551" lon="3.0733">
        <ele>87.96</ele>
        <time>2014-01-19T08:49:53Z</time>
      </trkpt>
      <trkpt lat="49.67534" lon="3.07307">
        <ele>87.68</ele>
        <time>2014-01-19T08:50:02Z</time>
      </trkpt>
      <trkpt lat="49.67523" lon="3.07277">
        <ele>87.32</ele>
        <time>2014-01-19T08:50:11Z</time>
      </trkpt>
      <trkpt lat="49.67519" lon="3.07241">
        <ele>86.91</ele>
        <time>2014-01-19T08:50:20Z</time>
      </trkpt>
      <trkpt lat="49.67517" lon="3.072">
        <ele>86.52</ele>
        <time>2014-01-19T08:50:29Z</time>
      </trkpt>
      <trkpt lat="49.67514" lon="3.07154">
        <ele>86</ele>
        <time>2014-01-19T08:50:38Z</time>
      </trkpt>
      <trkpt lat="49.67495" lon="3.07128">
        <ele>85.23</ele>
        <time>2014-01-19T08:50:47Z</time>
      </trkpt>
      <trkpt lat="49.67475" lon="3.07132">
        <ele>84.04</ele>
        <time>2014-01-19T08:50:52Z</time>
      </trkpt>
      <trkpt lat="49.67454" lon="3.07135">
        <ele>82.73</ele>
        <time>2014-01-19T08:50:57Z</time>
      </trkpt>
      <trkpt lat="49.67433" lon="3.07133">
        <ele>81.43</ele>
        <time>2014-01-19T08:51:02Z</time>
      </trkpt>
      <trkpt lat="49.67413" lon="3.07123">
        <ele>80.26</ele>
        <time>2014-01-19T08:51:07Z</time>
      </trkpt>
      <trkpt lat="49.67387" lon="3.07119">
        <ele>78.66</ele>
        <time>2014-01-19T08:51:20Z</time>
      </trkpt>
      <trkpt lat="49.67363" lon="3.07125">
        <ele>76.94</ele>
        <time>2014-01-19T08:51:38Z</time>
      </trkpt>
      <trkpt lat="49.67343" lon="3.07128">
        <ele>75.57</ele>
        <time>2014-01-19T08:51:53Z</time>
      </trkpt>
      <trkpt lat="49.67308" lon="3.07135">
        <ele>73.03</ele>
        <time>2014-01-19T08:52:07Z</time>
      </trkpt>
      <trkpt lat="49.67289" lon="3.07137">
        <ele>71.69</ele>
        <time>2014-01-19T08:52:11Z</time>
      </trkpt>
      <trkpt lat="49.67263" lon="3.07145">
        <ele>69.67</ele>
        <time>2014-01-19T08:52:16Z</time>
      </trkpt>
      <trkpt lat="49.67242" lon="3.07141">
        <ele>68.38</ele>
        <time>2014-01-19T08:52:20Z</time>
      </trkpt>
      <trkpt lat="49.67219" lon="3.07131">
        <ele>67.11</ele>
        <time>2014-01-19T08:52:25Z</time>
      </trkpt>
      <trkpt lat="49.672" lon="3.07125">
        <ele>65.92</ele>
        <time>2014-01-19T08:52:34Z</time>
      </trkpt>
      <trkpt lat="49.6718" lon="3.07132">
        <ele>64.37</ele>
        <time>2014-01-19T08:53:52Z</time>
      </trkpt>
      <trkpt lat="49.67157" lon="3.07156">
        <ele>63.1</ele>
        <time>2014-01-19T08:54:19Z</time>
      </trkpt>
      <trkpt lat="49.67124" lon="3.07183">
        <ele>63.01</ele>
        <time>2014-01-19T08:54:28Z</time>
      </trkpt>
      <trkpt lat="49.67089" lon="3.07199">
        <ele>63.34</ele>
        <time>2014-01-19T08:54:37Z</time>
      </trkpt>
      <trkpt lat="49.6705" lon="3.07206">
        <ele>65.83</ele>
        <time>2014-01-19T08:54:46Z</time>
      </trkpt>
      <trkpt lat="49.67031" lon="3.07204">
        <ele>67.14</ele>
        <time>2014-01-19T08:54:50Z</time>
      </trkpt>
      <trkpt lat="49.67006" lon="3.07197">
        <ele>68.64</ele>
        <time>2014-01-19T08:54:55Z</time>
      </trkpt>
      <trkpt lat="49.66988" lon="3.07187">
        <ele>69.54</ele>
        <time>2014-01-19T08:54:59Z</time>
      </trkpt>
      <trkpt lat="49.66956" lon="3.07178">
        <ele>71.44</ele>
        <time>2014-01-19T08:55:08Z</time>
      </trkpt>
      <trkpt lat="49.66926" lon="3.07192">
        <ele>73.74</ele>
        <time>2014-01-19T08:55:17Z</time>
      </trkpt>
      <trkpt lat="49.66908" lon="3.07204">
        <ele>74.55</ele>
        <time>2014-01-19T08:55:22Z</time>
      </trkpt>
      <trkpt lat="49.66879" lon="3.07228">
        <ele>75.4</ele>
        <time>2014-01-19T08:55:31Z</time>
      </trkpt>
      <trkpt lat="49.66854" lon="3.07201">
        <ele>75.04</ele>
        <time>2014-01-19T08:55:40Z</time>
      </trkpt>
      <trkpt lat="49.66832" lon="3.07166">
        <ele>74.04</ele>
        <time>2014-01-19T08:55:50Z</time>
      </trkpt>
      <trkpt lat="49.66807" lon="3.07142">
        <ele>74.75</ele>
        <time>2014-01-19T08:55:59Z</time>
      </trkpt>
      <trkpt lat="49.66782" lon="3.07104">
        <ele>75.06</ele>
        <time>2014-01-19T08:56:09Z</time>
      </trkpt>
      <trkpt lat="49.66758" lon="3.07066">
        <ele>74.37</ele>
        <time>2014-01-19T08:56:19Z</time>
      </trkpt>
      <trkpt lat="49.66737" lon="3.07029">
        <ele>73.89</ele>
        <time>2014-01-19T08:56:28Z</time>
      </trkpt>
      <trkpt lat="49.66716" lon="3.06992">
        <ele>74.29</ele>
        <time>2014-01-19T08:56:37Z</time>
      </trkpt>
      <trkpt lat="49.66697" lon="3.06956">
        <ele>74.93</ele>
        <time>2014-01-19T08:56:46Z</time>
      </trkpt>
      <trkpt lat="49.66676" lon="3.06918">
        <ele>75.47</ele>
        <time>2014-01-19T08:56:56Z</time>
      </trkpt>
      <trkpt lat="49.66655" lon="3.06881">
        <ele>75.63</ele>
        <time>2014-01-19T08:57:05Z</time>
      </trkpt>
      <trkpt lat="49.66633" lon="3.06845">
        <ele>75.86</ele>
        <time>2014-01-19T08:57:14Z</time>
      </trkpt>
      <trkpt lat="49.66613" lon="3.06813">
        <ele>75.95</ele>
        <time>2014-01-19T08:57:23Z</time>
      </trkpt>
      <trkpt lat="49.66591" lon="3.06781">
        <ele>75.79</ele>
        <time>2014-01-19T08:57:32Z</time>
      </trkpt>
      <trkpt lat="49.66578" lon="3.06761">
        <ele>75.54</ele>
        <time>2014-01-19T08:57:37Z</time>
      </trkpt>
      <trkpt lat="49.66555" lon="3.06727">
        <ele>75.23</ele>
        <time>2014-01-19T08:57:46Z</time>
      </trkpt>
      <trkpt lat="49.66532" lon="3.06692">
        <ele>75.28</ele>
        <time>2014-01-19T08:57:55Z</time>
      </trkpt>
      <trkpt lat="49.66512" lon="3.06662">
        <ele>75.51</ele>
        <time>2014-01-19T08:58:03Z</time>
      </trkpt>
      <trkpt lat="49.66497" lon="3.0664">
        <ele>75.73</ele>
        <time>2014-01-19T08:58:08Z</time>
      </trkpt>
      <trkpt lat="49.66469" lon="3.06602">
        <ele>75.68</ele>
        <time>2014-01-19T08:58:17Z</time>
      </trkpt>
      <trkpt lat="49.66443" lon="3.06563">
        <ele>75.11</ele>
        <time>2014-01-19T08:58:26Z</time>
      </trkpt>
      <trkpt lat="49.66416" lon="3.06526">
        <ele>74.63</ele>
        <time>2014-01-19T08:58:35Z</time>
      </trkpt>
      <trkpt lat="49.66396" lon="3.06497">
        <ele>74.22</ele>
        <time>2014-01-19T08:58:44Z</time>
      </trkpt>
      <trkpt lat="49.66375" lon="3.0646">
        <ele>74.5</ele>
        <time>2014-01-19T08:58:53Z</time>
      </trkpt>
      <trkpt lat="49.66362" lon="3.06436">
        <ele>74.91</ele>
        <time>2014-01-19T08:58:57Z</time>
      </trkpt>
      <trkpt lat="49.66345" lon="3.06408">
        <ele>75.67</ele>
        <time>2014-01-19T08:59:02Z</time>
      </trkpt>
      <trkpt lat="49.66331" lon="3.06381">
        <ele>76.52</ele>
        <time>2014-01-19T08:59:07Z</time>
      </trkpt>
      <trkpt lat="49.6631" lon="3.06343">
        <ele>77.95</ele>
        <time>2014-01-19T08:59:15Z</time>
      </trkpt>
      <trkpt lat="49.66298" lon="3.0632">
        <ele>78.53</ele>
        <time>2014-01-19T08:59:20Z</time>
      </trkpt>
      <trkpt lat="49.66286" lon="3.06298">
        <ele>78.84</ele>
        <time>2014-01-19T08:59:25Z</time>
      </trkpt>
      <trkpt lat="49.6627" lon="3.06267">
        <ele>79.27</ele>
        <time>2014-01-19T08:59:33Z</time>
      </trkpt>
      <trkpt lat="49.66257" lon="3.06245">
        <ele>79.52</ele>
        <time>2014-01-19T08:59:38Z</time>
      </trkpt>
      <trkpt lat="49.66238" lon="3.06212">
        <ele>79.22</ele>
        <time>2014-01-19T08:59:47Z</time>
      </trkpt>
      <trkpt lat="49.66221" lon="3.06184">
        <ele>79.04</ele>
        <time>2014-01-19T08:59:56Z</time>
      </trkpt>
      <trkpt lat="49.66203" lon="3.06157">
        <ele>79.14</ele>
        <time>2014-01-19T09:00:05Z</time>
      </trkpt>
      <trkpt lat="49.66188" lon="3.06132">
        <ele>79.55</ele>
        <time>2014-01-19T09:00:13Z</time>
      </trkpt>
      <trkpt lat="49.66175" lon="3.06108">
        <ele>79.92</ele>
        <time>2014-01-19T09:00:21Z</time>
      </trkpt>
      <trkpt lat="49.66156" lon="3.06077">
        <ele>80.35</ele>
        <time>2014-01-19T09:00:30Z</time>
      </trkpt>
      <trkpt lat="49.66139" lon="3.06047">
        <ele>80.57</ele>
        <time>2014-01-19T09:00:39Z</time>
      </trkpt>
      <trkpt lat="49.66126" lon="3.06027">
        <ele>80.47</ele>
        <time>2014-01-19T09:00:44Z</time>
      </trkpt>
      <trkpt lat="49.66102" lon="3.05989">
        <ele>79.74</ele>
        <time>2014-01-19T09:00:53Z</time>
      </trkpt>
      <trkpt lat="49.66081" lon="3.05954">
        <ele>78.96</ele>
        <time>2014-01-19T09:01:02Z</time>
      </trkpt>
      <trkpt lat="49.66063" lon="3.05925">
        <ele>78.7</ele>
        <time>2014-01-19T09:01:11Z</time>
      </trkpt>
      <trkpt lat="49.66041" lon="3.05891">
        <ele>78.38</ele>
        <time>2014-01-19T09:01:20Z</time>
      </trkpt>
      <trkpt lat="49.66025" lon="3.05864">
        <ele>77.89</ele>
        <time>2014-01-19T09:01:28Z</time>
      </trkpt>
      <trkpt lat="49.66011" lon="3.05844">
        <ele>77.35</ele>
        <time>2014-01-19T09:01:33Z</time>
      </trkpt>
      <trkpt lat="49.65987" lon="3.05808">
        <ele>77.22</ele>
        <time>2014-01-19T09:01:43Z</time>
      </trkpt>
      <trkpt lat="49.65968" lon="3.05778">
        <ele>77.26</ele>
        <time>2014-01-19T09:01:51Z</time>
      </trkpt>
      <trkpt lat="49.65945" lon="3.0574">
        <ele>76.92</ele>
        <time>2014-01-19T09:02:01Z</time>
      </trkpt>
      <trkpt lat="49.65926" lon="3.05712">
        <ele>76.6</ele>
        <time>2014-01-19T09:02:09Z</time>
      </trkpt>
      <trkpt lat="49.65904" lon="3.05678">
        <ele>76.16</ele>
        <time>2014-01-19T09:02:18Z</time>
      </trkpt>
      <trkpt lat="49.65885" lon="3.05626">
        <ele>75.52</ele>
        <time>2014-01-19T09:02:28Z</time>
      </trkpt>
      <trkpt lat="49.65875" lon="3.05602">
        <ele>75.22</ele>
        <time>2014-01-19T09:02:32Z</time>
      </trkpt>
      <trkpt lat="49.65863" lon="3.05574">
        <ele>74.93</ele>
        <time>2014-01-19T09:02:37Z</time>
      </trkpt>
      <trkpt lat="49.65848" lon="3.05535">
        <ele>74.52</ele>
        <time>2014-01-19T09:02:45Z</time>
      </trkpt>
      <trkpt lat="49.6583" lon="3.05493">
        <ele>73.83</ele>
        <time>2014-01-19T09:02:55Z</time>
      </trkpt>
      <trkpt lat="49.65822" lon="3.05464">
        <ele>73.01</ele>
        <time>2014-01-19T09:03:03Z</time>
      </trkpt>
      <trkpt lat="49.65812" lon="3.05439">
        <ele>72.15</ele>
        <time>2014-01-19T09:04:33Z</time>
      </trkpt>
      <trkpt lat="49.65824" lon="3.05477">
        <ele>73.39</ele>
        <time>2014-01-19T09:04:43Z</time>
      </trkpt>
      <trkpt lat="49.65842" lon="3.05523">
        <ele>74.35</ele>
        <time>2014-01-19T09:04:51Z</time>
      </trkpt>
      <trkpt lat="49.65855" lon="3.05557">
        <ele>74.76</ele>
        <time>2014-01-19T09:04:56Z</time>
      </trkpt>
      <trkpt lat="49.65866" lon="3.0559">
        <ele>75.08</ele>
        <time>2014-01-19T09:05:01Z</time>
      </trkpt>
      <trkpt lat="49.65878" lon="3.05615">
        <ele>75.38</ele>
        <time>2014-01-19T09:05:05Z</time>
      </trkpt>
      <trkpt lat="49.65889" lon="3.05644">
        <ele>75.73</ele>
        <time>2014-01-19T09:05:09Z</time>
      </trkpt>
      <trkpt lat="49.659" lon="3.05674">
        <ele>76.11</ele>
        <time>2014-01-19T09:05:14Z</time>
      </trkpt>
      <trkpt lat="49.65914" lon="3.05699">
        <ele>76.4</ele>
        <time>2014-01-19T09:05:19Z</time>
      </trkpt>
      <trkpt lat="49.65932" lon="3.05725">
        <ele>76.75</ele>
        <time>2014-01-19T09:05:27Z</time>
      </trkpt>
      <trkpt lat="49.65945" lon="3.05751">
        <ele>77.02</ele>
        <time>2014-01-19T09:05:37Z</time>
      </trkpt>
      <trkpt lat="49.65934" lon="3.05719">
        <ele>76.7</ele>
        <time>2014-01-19T09:05:55Z</time>
      </trkpt>
      <trkpt lat="49.65912" lon="3.05685">
        <ele>76.23</ele>
        <time>2014-01-19T09:06:04Z</time>
      </trkpt>
      <trkpt lat="49.65899" lon="3.05653">
        <ele>75.84</ele>
        <time>2014-01-19T09:06:13Z</time>
      </trkpt>
      <trkpt lat="49.65887" lon="3.0563">
        <ele>75.56</ele>
        <time>2014-01-19T09:06:21Z</time>
      </trkpt>
      <trkpt lat="49.65875" lon="3.05605">
        <ele>75.25</ele>
        <time>2014-01-19T09:06:30Z</time>
      </trkpt>
      <trkpt lat="49.65861" lon="3.05572">
        <ele>74.91</ele>
        <time>2014-01-19T09:06:44Z</time>
      </trkpt>
      <trkpt lat="49.65847" lon="3.05546">
        <ele>74.63</ele>
        <time>2014-01-19T09:06:54Z</time>
      </trkpt>
      <trkpt lat="49.65831" lon="3.05509">
        <ele>74.1</ele>
        <time>2014-01-19T09:07:03Z</time>
      </trkpt>
      <trkpt lat="49.6582" lon="3.05471">
        <ele>73.18</ele>
        <time>2014-01-19T09:07:12Z</time>
      </trkpt>
      <trkpt lat="49.65815" lon="3.05441">
        <ele>72.27</ele>
        <time>2014-01-19T09:08:17Z</time>
      </trkpt>
      <trkpt lat="49.65796" lon="3.05463">
        <ele>72.72</ele>
        <time>2014-01-19T09:11:16Z</time>
      </trkpt>
      <trkpt lat="49.65777" lon="3.05479">
        <ele>73.15</ele>
        <time>2014-01-19T09:11:26Z</time>
      </trkpt>
      <trkpt lat="49.65751" lon="3.05506">
        <ele>74</ele>
        <time>2014-01-19T09:11:35Z</time>
      </trkpt>
      <trkpt lat="49.65716" lon="3.05535">
        <ele>71.53</ele>
        <time>2014-01-19T09:11:40Z</time>
      </trkpt>
      <trkpt lat="49.65679" lon="3.05525">
        <ele>68.9</ele>
        <time>2014-01-19T09:11:45Z</time>
      </trkpt>
      <trkpt lat="49.65655" lon="3.05504">
        <ele>67.43</ele>
        <time>2014-01-19T09:11:50Z</time>
      </trkpt>
      <trkpt lat="49.65633" lon="3.05489">
        <ele>66.14</ele>
        <time>2014-01-19T09:11:55Z</time>
      </trkpt>
      <trkpt lat="49.65615" lon="3.05476">
        <ele>65.09</ele>
        <time>2014-01-19T09:11:59Z</time>
      </trkpt>
      <trkpt lat="49.65596" lon="3.05461">
        <ele>64.06</ele>
        <time>2014-01-19T09:12:03Z</time>
      </trkpt>
      <trkpt lat="49.65572" lon="3.05442">
        <ele>62.84</ele>
        <time>2014-01-19T09:12:08Z</time>
      </trkpt>
      <trkpt lat="49.65548" lon="3.05425">
        <ele>61.79</ele>
        <time>2014-01-19T09:12:13Z</time>
      </trkpt>
      <trkpt lat="49.65531" lon="3.05411">
        <ele>61.04</ele>
        <time>2014-01-19T09:12:17Z</time>
      </trkpt>
      <trkpt lat="49.65496" lon="3.05382">
        <ele>59.46</ele>
        <time>2014-01-19T09:12:26Z</time>
      </trkpt>
      <trkpt lat="49.65477" lon="3.05371">
        <ele>58.76</ele>
        <time>2014-01-19T09:12:30Z</time>
      </trkpt>
      <trkpt lat="49.65453" lon="3.05354">
        <ele>57.97</ele>
        <time>2014-01-19T09:12:35Z</time>
      </trkpt>
      <trkpt lat="49.65434" lon="3.05343">
        <ele>57.44</ele>
        <time>2014-01-19T09:12:39Z</time>
      </trkpt>
      <trkpt lat="49.6541" lon="3.05325">
        <ele>56.92</ele>
        <time>2014-01-19T09:12:44Z</time>
      </trkpt>
      <trkpt lat="49.65386" lon="3.05309">
        <ele>56.74</ele>
        <time>2014-01-19T09:12:49Z</time>
      </trkpt>
      <trkpt lat="49.6536" lon="3.05297">
        <ele>56.62</ele>
        <time>2014-01-19T09:12:54Z</time>
      </trkpt>
      <trkpt lat="49.65336" lon="3.05289">
        <ele>56.54</ele>
        <time>2014-01-19T09:12:59Z</time>
      </trkpt>
      <trkpt lat="49.65316" lon="3.05329">
        <ele>56.27</ele>
        <time>2014-01-19T09:13:08Z</time>
      </trkpt>
      <trkpt lat="49.65305" lon="3.05359">
        <ele>56.44</ele>
        <time>2014-01-19T09:13:13Z</time>
      </trkpt>
      <trkpt lat="49.65295" lon="3.05383">
        <ele>56.51</ele>
        <time>2014-01-19T09:13:17Z</time>
      </trkpt>
      <trkpt lat="49.65287" lon="3.05417">
        <ele>56.44</ele>
        <time>2014-01-19T09:13:22Z</time>
      </trkpt>
      <trkpt lat="49.65279" lon="3.05453">
        <ele>56.48</ele>
        <time>2014-01-19T09:13:27Z</time>
      </trkpt>
      <trkpt lat="49.65269" lon="3.05484">
        <ele>56.67</ele>
        <time>2014-01-19T09:13:32Z</time>
      </trkpt>
      <trkpt lat="49.65255" lon="3.05513">
        <ele>56.93</ele>
        <time>2014-01-19T09:13:37Z</time>
      </trkpt>
      <trkpt lat="49.65243" lon="3.05539">
        <ele>57.31</ele>
        <time>2014-01-19T09:13:41Z</time>
      </trkpt>
      <trkpt lat="49.65233" lon="3.05571">
        <ele>57.65</ele>
        <time>2014-01-19T09:13:45Z</time>
      </trkpt>
      <trkpt lat="49.65216" lon="3.05607">
        <ele>57.77</ele>
        <time>2014-01-19T09:13:50Z</time>
      </trkpt>
      <trkpt lat="49.65198" lon="3.0564">
        <ele>57.93</ele>
        <time>2014-01-19T09:13:55Z</time>
      </trkpt>
      <trkpt lat="49.65192" lon="3.05672">
        <ele>57.82</ele>
        <time>2014-01-19T09:13:59Z</time>
      </trkpt>
      <trkpt lat="49.65183" lon="3.05705">
        <ele>58.4</ele>
        <time>2014-01-19T09:14:04Z</time>
      </trkpt>
      <trkpt lat="49.65174" lon="3.05745">
        <ele>58.8</ele>
        <time>2014-01-19T09:14:13Z</time>
      </trkpt>
      <trkpt lat="49.65181" lon="3.05774">
        <ele>58.7</ele>
        <time>2014-01-19T09:14:22Z</time>
      </trkpt>
      <trkpt lat="49.65169" lon="3.0582">
        <ele>58.96</ele>
        <time>2014-01-19T09:14:32Z</time>
      </trkpt>
      <trkpt lat="49.65157" lon="3.05862">
        <ele>59.67</ele>
        <time>2014-01-19T09:14:41Z</time>
      </trkpt>
      <trkpt lat="49.65144" lon="3.05901">
        <ele>60.4</ele>
        <time>2014-01-19T09:14:50Z</time>
      </trkpt>
      <trkpt lat="49.65131" lon="3.05943">
        <ele>60.38</ele>
        <time>2014-01-19T09:14:59Z</time>
      </trkpt>
      <trkpt lat="49.65117" lon="3.05982">
        <ele>60.1</ele>
        <time>2014-01-19T09:15:08Z</time>
      </trkpt>
      <trkpt lat="49.65109" lon="3.06026">
        <ele>59.68</ele>
        <time>2014-01-19T09:15:17Z</time>
      </trkpt>
      <trkpt lat="49.65098" lon="3.06068">
        <ele>59.52</ele>
        <time>2014-01-19T09:15:26Z</time>
      </trkpt>
      <trkpt lat="49.65088" lon="3.06115">
        <ele>59.06</ele>
        <time>2014-01-19T09:15:36Z</time>
      </trkpt>
      <trkpt lat="49.65078" lon="3.06157">
        <ele>58.53</ele>
        <time>2014-01-19T09:15:45Z</time>
      </trkpt>
      <trkpt lat="49.65066" lon="3.06197">
        <ele>58.96</ele>
        <time>2014-01-19T09:15:55Z</time>
      </trkpt>
      <trkpt lat="49.65054" lon="3.06234">
        <ele>59.46</ele>
        <time>2014-01-19T09:16:04Z</time>
      </trkpt>
      <trkpt lat="49.6504" lon="3.06276">
        <ele>59.91</ele>
        <time>2014-01-19T09:16:14Z</time>
      </trkpt>
      <trkpt lat="49.65027" lon="3.06315">
        <ele>60.18</ele>
        <time>2014-01-19T09:16:24Z</time>
      </trkpt>
      <trkpt lat="49.65013" lon="3.06347">
        <ele>60.55</ele>
        <time>2014-01-19T09:16:33Z</time>
      </trkpt>
      <trkpt lat="49.64992" lon="3.06378">
        <ele>61.28</ele>
        <time>2014-01-19T09:16:43Z</time>
      </trkpt>
      <trkpt lat="49.64974" lon="3.06407">
        <ele>61.92</ele>
        <time>2014-01-19T09:16:52Z</time>
      </trkpt>
      <trkpt lat="49.64953" lon="3.06439">
        <ele>62.67</ele>
        <time>2014-01-19T09:17:02Z</time>
      </trkpt>
      <trkpt lat="49.64938" lon="3.06475">
        <ele>62.9</ele>
        <time>2014-01-19T09:17:11Z</time>
      </trkpt>
      <trkpt lat="49.64924" lon="3.06511">
        <ele>62.91</ele>
        <time>2014-01-19T09:17:20Z</time>
      </trkpt>
      <trkpt lat="49.64911" lon="3.06545">
        <ele>63.07</ele>
        <time>2014-01-19T09:17:29Z</time>
      </trkpt>
      <trkpt lat="49.649" lon="3.06578">
        <ele>63.21</ele>
        <time>2014-01-19T09:17:38Z</time>
      </trkpt>
      <trkpt lat="49.64886" lon="3.0661">
        <ele>62.93</ele>
        <time>2014-01-19T09:17:47Z</time>
      </trkpt>
      <trkpt lat="49.64861" lon="3.06585">
        <ele>63.64</ele>
        <time>2014-01-19T09:18:02Z</time>
      </trkpt>
      <trkpt lat="49.64851" lon="3.0656">
        <ele>63.79</ele>
        <time>2014-01-19T09:18:07Z</time>
      </trkpt>
      <trkpt lat="49.64838" lon="3.06536">
        <ele>63.94</ele>
        <time>2014-01-19T09:18:12Z</time>
      </trkpt>
      <trkpt lat="49.64817" lon="3.0649">
        <ele>64.41</ele>
        <time>2014-01-19T09:18:21Z</time>
      </trkpt>
      <trkpt lat="49.64804" lon="3.06463">
        <ele>65.09</ele>
        <time>2014-01-19T09:18:26Z</time>
      </trkpt>
      <trkpt lat="49.64783" lon="3.06422">
        <ele>65.92</ele>
        <time>2014-01-19T09:18:34Z</time>
      </trkpt>
      <trkpt lat="49.64769" lon="3.06399">
        <ele>66.37</ele>
        <time>2014-01-19T09:18:39Z</time>
      </trkpt>
      <trkpt lat="49.64753" lon="3.06378">
        <ele>66.91</ele>
        <time>2014-01-19T09:18:44Z</time>
      </trkpt>
      <trkpt lat="49.64737" lon="3.06359">
        <ele>67.48</ele>
        <time>2014-01-19T09:18:49Z</time>
      </trkpt>
      <trkpt lat="49.64714" lon="3.06332">
        <ele>68.46</ele>
        <time>2014-01-19T09:18:57Z</time>
      </trkpt>
      <trkpt lat="49.64698" lon="3.06315">
        <ele>69.11</ele>
        <time>2014-01-19T09:19:02Z</time>
      </trkpt>
      <trkpt lat="49.64683" lon="3.06297">
        <ele>69.94</ele>
        <time>2014-01-19T09:19:07Z</time>
      </trkpt>
      <trkpt lat="49.64654" lon="3.06265">
        <ele>71.43</ele>
        <time>2014-01-19T09:19:16Z</time>
      </trkpt>
      <trkpt lat="49.64625" lon="3.06234">
        <ele>72.39</ele>
        <time>2014-01-19T09:19:26Z</time>
      </trkpt>
      <trkpt lat="49.64598" lon="3.06203">
        <ele>73.12</ele>
        <time>2014-01-19T09:19:35Z</time>
      </trkpt>
      <trkpt lat="49.64571" lon="3.06172">
        <ele>73.73</ele>
        <time>2014-01-19T09:19:44Z</time>
      </trkpt>
      <trkpt lat="49.64556" lon="3.06155">
        <ele>74.05</ele>
        <time>2014-01-19T09:19:49Z</time>
      </trkpt>
      <trkpt lat="49.64535" lon="3.06129">
        <ele>74.85</ele>
        <time>2014-01-19T09:19:57Z</time>
      </trkpt>
      <trkpt lat="49.6451" lon="3.06097">
        <ele>76.25</ele>
        <time>2014-01-19T09:20:06Z</time>
      </trkpt>
      <trkpt lat="49.64485" lon="3.06067">
        <ele>77.78</ele>
        <time>2014-01-19T09:20:15Z</time>
      </trkpt>
      <trkpt lat="49.64472" lon="3.06048">
        <ele>78.67</ele>
        <time>2014-01-19T09:20:20Z</time>
      </trkpt>
      <trkpt lat="49.64448" lon="3.06011">
        <ele>80.53</ele>
        <time>2014-01-19T09:20:29Z</time>
      </trkpt>
      <trkpt lat="49.64426" lon="3.0597">
        <ele>82.41</ele>
        <time>2014-01-19T09:20:38Z</time>
      </trkpt>
      <trkpt lat="49.64414" lon="3.05948">
        <ele>83.27</ele>
        <time>2014-01-19T09:20:43Z</time>
      </trkpt>
      <trkpt lat="49.64403" lon="3.05926">
        <ele>83.93</ele>
        <time>2014-01-19T09:20:48Z</time>
      </trkpt>
      <trkpt lat="49.64383" lon="3.05887">
        <ele>85.11</ele>
        <time>2014-01-19T09:20:57Z</time>
      </trkpt>
      <trkpt lat="49.64361" lon="3.05852">
        <ele>86.22</ele>
        <time>2014-01-19T09:21:07Z</time>
      </trkpt>
      <trkpt lat="49.64342" lon="3.0583">
        <ele>87.06</ele>
        <time>2014-01-19T09:21:15Z</time>
      </trkpt>
      <trkpt lat="49.64322" lon="3.05805">
        <ele>88.49</ele>
        <time>2014-01-19T09:21:25Z</time>
      </trkpt>
      <trkpt lat="49.64305" lon="3.05788">
        <ele>89.51</ele>
        <time>2014-01-19T09:21:33Z</time>
      </trkpt>
      <trkpt lat="49.64286" lon="3.05768">
        <ele>90.72</ele>
        <time>2014-01-19T09:21:42Z</time>
      </trkpt>
      <trkpt lat="49.6426" lon="3.05747">
        <ele>91.86</ele>
        <time>2014-01-19T09:21:51Z</time>
      </trkpt>
      <trkpt lat="49.64228" lon="3.05737">
        <ele>90.22</ele>
        <time>2014-01-19T09:22:01Z</time>
      </trkpt>
      <trkpt lat="49.64201" lon="3.05737">
        <ele>88.34</ele>
        <time>2014-01-19T09:22:10Z</time>
      </trkpt>
      <trkpt lat="49.64173" lon="3.05741">
        <ele>86.35</ele>
        <time>2014-01-19T09:22:20Z</time>
      </trkpt>
      <trkpt lat="49.6415" lon="3.05743">
        <ele>85.5</ele>
        <time>2014-01-19T09:22:29Z</time>
      </trkpt>
      <trkpt lat="49.64125" lon="3.05748">
        <ele>84.95</ele>
        <time>2014-01-19T09:22:38Z</time>
      </trkpt>
      <trkpt lat="49.64095" lon="3.05749">
        <ele>84.24</ele>
        <time>2014-01-19T09:22:47Z</time>
      </trkpt>
      <trkpt lat="49.64059" lon="3.05752">
        <ele>83.69</ele>
        <time>2014-01-19T09:22:56Z</time>
      </trkpt>
      <trkpt lat="49.64024" lon="3.05756">
        <ele>83.27</ele>
        <time>2014-01-19T09:23:04Z</time>
      </trkpt>
      <trkpt lat="49.63998" lon="3.05757">
        <ele>82.95</ele>
        <time>2014-01-19T09:23:09Z</time>
      </trkpt>
      <trkpt lat="49.63972" lon="3.05759">
        <ele>82.37</ele>
        <time>2014-01-19T09:23:14Z</time>
      </trkpt>
      <trkpt lat="49.6395" lon="3.05765">
        <ele>81.91</ele>
        <time>2014-01-19T09:23:19Z</time>
      </trkpt>
      <trkpt lat="49.63928" lon="3.05767">
        <ele>81.44</ele>
        <time>2014-01-19T09:23:24Z</time>
      </trkpt>
      <trkpt lat="49.63904" lon="3.05769">
        <ele>80.92</ele>
        <time>2014-01-19T09:23:29Z</time>
      </trkpt>
      <trkpt lat="49.63864" lon="3.05772">
        <ele>80.01</ele>
        <time>2014-01-19T09:23:38Z</time>
      </trkpt>
      <trkpt lat="49.6383" lon="3.05777">
        <ele>79.38</ele>
        <time>2014-01-19T09:23:46Z</time>
      </trkpt>
      <trkpt lat="49.63809" lon="3.05779">
        <ele>79.73</ele>
        <time>2014-01-19T09:23:51Z</time>
      </trkpt>
      <trkpt lat="49.6379" lon="3.05781">
        <ele>80.03</ele>
        <time>2014-01-19T09:23:56Z</time>
      </trkpt>
      <trkpt lat="49.63771" lon="3.05782">
        <ele>80.31</ele>
        <time>2014-01-19T09:24:01Z</time>
      </trkpt>
      <trkpt lat="49.63751" lon="3.05784">
        <ele>80.58</ele>
        <time>2014-01-19T09:24:06Z</time>
      </trkpt>
      <trkpt lat="49.63713" lon="3.05787">
        <ele>80.31</ele>
        <time>2014-01-19T09:24:15Z</time>
      </trkpt>
      <trkpt lat="49.63693" lon="3.05791">
        <ele>80.16</ele>
        <time>2014-01-19T09:24:20Z</time>
      </trkpt>
      <trkpt lat="49.63672" lon="3.05791">
        <ele>80.03</ele>
        <time>2014-01-19T09:24:25Z</time>
      </trkpt>
      <trkpt lat="49.63653" lon="3.05793">
        <ele>80.32</ele>
        <time>2014-01-19T09:24:30Z</time>
      </trkpt>
      <trkpt lat="49.63619" lon="3.058">
        <ele>81.14</ele>
        <time>2014-01-19T09:24:39Z</time>
      </trkpt>
      <trkpt lat="49.63582" lon="3.05808">
        <ele>82.08</ele>
        <time>2014-01-19T09:24:49Z</time>
      </trkpt>
      <trkpt lat="49.63549" lon="3.05814">
        <ele>83.94</ele>
        <time>2014-01-19T09:24:58Z</time>
      </trkpt>
      <trkpt lat="49.63532" lon="3.05824">
        <ele>85</ele>
        <time>2014-01-19T09:25:03Z</time>
      </trkpt>
      <trkpt lat="49.63512" lon="3.05829">
        <ele>86.24</ele>
        <time>2014-01-19T09:25:08Z</time>
      </trkpt>
      <trkpt lat="49.63492" lon="3.05837">
        <ele>87.12</ele>
        <time>2014-01-19T09:25:13Z</time>
      </trkpt>
      <trkpt lat="49.6346" lon="3.05848">
        <ele>87.79</ele>
        <time>2014-01-19T09:25:22Z</time>
      </trkpt>
      <trkpt lat="49.63427" lon="3.05867">
        <ele>88.66</ele>
        <time>2014-01-19T09:25:32Z</time>
      </trkpt>
      <trkpt lat="49.6341" lon="3.05878">
        <ele>89.17</ele>
        <time>2014-01-19T09:25:37Z</time>
      </trkpt>
      <trkpt lat="49.63378" lon="3.05895">
        <ele>90.15</ele>
        <time>2014-01-19T09:25:45Z</time>
      </trkpt>
      <trkpt lat="49.63353" lon="3.05905">
        <ele>91.08</ele>
        <time>2014-01-19T09:25:55Z</time>
      </trkpt>
      <trkpt lat="49.63335" lon="3.05897">
        <ele>91.48</ele>
        <time>2014-01-19T09:26:00Z</time>
      </trkpt>
      <trkpt lat="49.63317" lon="3.05888">
        <ele>91.7</ele>
        <time>2014-01-19T09:26:04Z</time>
      </trkpt>
      <trkpt lat="49.63282" lon="3.05883">
        <ele>92.42</ele>
        <time>2014-01-19T09:26:14Z</time>
      </trkpt>
      <trkpt lat="49.63258" lon="3.05873">
        <ele>92.76</ele>
        <time>2014-01-19T09:26:19Z</time>
      </trkpt>
      <trkpt lat="49.63226" lon="3.05868">
        <ele>93.46</ele>
        <time>2014-01-19T09:26:28Z</time>
      </trkpt>
      <trkpt lat="49.63194" lon="3.05864">
        <ele>94.27</ele>
        <time>2014-01-19T09:26:38Z</time>
      </trkpt>
      <trkpt lat="49.63162" lon="3.05861">
        <ele>95.23</ele>
        <time>2014-01-19T09:26:47Z</time>
      </trkpt>
      <trkpt lat="49.63129" lon="3.05862">
        <ele>96.67</ele>
        <time>2014-01-19T09:26:57Z</time>
      </trkpt>
      <trkpt lat="49.63101" lon="3.05863">
        <ele>97.88</ele>
        <time>2014-01-19T09:27:05Z</time>
      </trkpt>
      <trkpt lat="49.6307" lon="3.05858">
        <ele>98.98</ele>
        <time>2014-01-19T09:27:14Z</time>
      </trkpt>
      <trkpt lat="49.63051" lon="3.05856">
        <ele>99.39</ele>
        <time>2014-01-19T09:27:19Z</time>
      </trkpt>
      <trkpt lat="49.6302" lon="3.05855">
        <ele>100.07</ele>
        <time>2014-01-19T09:27:28Z</time>
      </trkpt>
      <trkpt lat="49.62987" lon="3.05852">
        <ele>100.56</ele>
        <time>2014-01-19T09:27:38Z</time>
      </trkpt>
      <trkpt lat="49.62959" lon="3.05847">
        <ele>100.67</ele>
        <time>2014-01-19T09:27:47Z</time>
      </trkpt>
      <trkpt lat="49.62932" lon="3.05843">
        <ele>100.78</ele>
        <time>2014-01-19T09:27:56Z</time>
      </trkpt>
      <trkpt lat="49.62905" lon="3.05836">
        <ele>100.78</ele>
        <time>2014-01-19T09:28:05Z</time>
      </trkpt>
      <trkpt lat="49.62875" lon="3.05829">
        <ele>100.5</ele>
        <time>2014-01-19T09:28:14Z</time>
      </trkpt>
      <trkpt lat="49.62846" lon="3.05822">
        <ele>100.05</ele>
        <time>2014-01-19T09:28:23Z</time>
      </trkpt>
      <trkpt lat="49.62816" lon="3.05814">
        <ele>99.77</ele>
        <time>2014-01-19T09:28:32Z</time>
      </trkpt>
      <trkpt lat="49.62786" lon="3.05812">
        <ele>99.74</ele>
        <time>2014-01-19T09:28:41Z</time>
      </trkpt>
      <trkpt lat="49.62757" lon="3.05804">
        <ele>99.65</ele>
        <time>2014-01-19T09:28:50Z</time>
      </trkpt>
      <trkpt lat="49.62728" lon="3.05798">
        <ele>100.74</ele>
        <time>2014-01-19T09:28:59Z</time>
      </trkpt>
      <trkpt lat="49.62704" lon="3.05794">
        <ele>102.02</ele>
        <time>2014-01-19T09:29:08Z</time>
      </trkpt>
      <trkpt lat="49.62685" lon="3.05794">
        <ele>103.02</ele>
        <time>2014-01-19T09:29:18Z</time>
      </trkpt>
      <trkpt lat="49.62664" lon="3.05787">
        <ele>104.18</ele>
        <time>2014-01-19T09:29:27Z</time>
      </trkpt>
      <trkpt lat="49.62639" lon="3.05782">
        <ele>105.67</ele>
        <time>2014-01-19T09:29:37Z</time>
      </trkpt>
      <trkpt lat="49.6262" lon="3.05779">
        <ele>106.78</ele>
        <time>2014-01-19T09:29:46Z</time>
      </trkpt>
      <trkpt lat="49.62599" lon="3.05779">
        <ele>108.07</ele>
        <time>2014-01-19T09:29:56Z</time>
      </trkpt>
      <trkpt lat="49.62576" lon="3.05775">
        <ele>109.78</ele>
        <time>2014-01-19T09:30:06Z</time>
      </trkpt>
      <trkpt lat="49.62554" lon="3.05773">
        <ele>112.07</ele>
        <time>2014-01-19T09:30:15Z</time>
      </trkpt>
      <trkpt lat="49.62535" lon="3.05778">
        <ele>114.06</ele>
        <time>2014-01-19T09:30:25Z</time>
      </trkpt>
      <trkpt lat="49.62512" lon="3.05781">
        <ele>116.42</ele>
        <time>2014-01-19T09:30:39Z</time>
      </trkpt>
      <trkpt lat="49.62488" lon="3.05793">
        <ele>120.04</ele>
        <time>2014-01-19T09:30:49Z</time>
      </trkpt>
      <trkpt lat="49.62465" lon="3.05814">
        <ele>124.98</ele>
        <time>2014-01-19T09:31:02Z</time>
      </trkpt>
      <trkpt lat="49.62443" lon="3.05829">
        <ele>129.94</ele>
        <time>2014-01-19T09:31:12Z</time>
      </trkpt>
      <trkpt lat="49.62427" lon="3.05848">
        <ele>132.88</ele>
        <time>2014-01-19T09:31:22Z</time>
      </trkpt>
      <trkpt lat="49.6241" lon="3.05866">
        <ele>135.48</ele>
        <time>2014-01-19T09:31:32Z</time>
      </trkpt>
      <trkpt lat="49.62394" lon="3.05891">
        <ele>136.5</ele>
        <time>2014-01-19T09:31:50Z</time>
      </trkpt>
      <trkpt lat="49.62382" lon="3.05916">
        <ele>136.27</ele>
        <time>2014-01-19T09:32:03Z</time>
      </trkpt>
      <trkpt lat="49.62371" lon="3.05945">
        <ele>134.09</ele>
        <time>2014-01-19T09:32:17Z</time>
      </trkpt>
      <trkpt lat="49.62347" lon="3.05953">
        <ele>135.44</ele>
        <time>2014-01-19T09:32:37Z</time>
      </trkpt>
      <trkpt lat="49.62332" lon="3.05933">
        <ele>139.66</ele>
        <time>2014-01-19T09:32:46Z</time>
      </trkpt>
      <trkpt lat="49.62313" lon="3.05938">
        <ele>139.32</ele>
        <time>2014-01-19T09:32:59Z</time>
      </trkpt>
      <trkpt lat="49.62288" lon="3.05922">
        <ele>142.66</ele>
        <time>2014-01-19T09:33:14Z</time>
      </trkpt>
      <trkpt lat="49.62269" lon="3.059">
        <ele>147.04</ele>
        <time>2014-01-19T09:33:23Z</time>
      </trkpt>
      <trkpt lat="49.62251" lon="3.05882">
        <ele>151.25</ele>
        <time>2014-01-19T09:33:38Z</time>
      </trkpt>
      <trkpt lat="49.62229" lon="3.05871">
        <ele>153.27</ele>
        <time>2014-01-19T09:33:57Z</time>
      </trkpt>
      <trkpt lat="49.62209" lon="3.05868">
        <ele>153.87</ele>
        <time>2014-01-19T09:34:20Z</time>
      </trkpt>
      <trkpt lat="49.62188" lon="3.05858">
        <ele>155.9</ele>
        <time>2014-01-19T09:34:34Z</time>
      </trkpt>
      <trkpt lat="49.62166" lon="3.05837">
        <ele>160.27</ele>
        <time>2014-01-19T09:34:57Z</time>
      </trkpt>
      <trkpt lat="49.62147" lon="3.05824">
        <ele>163.8</ele>
        <time>2014-01-19T09:35:15Z</time>
      </trkpt>
      <trkpt lat="49.62126" lon="3.0581">
        <ele>167.33</ele>
        <time>2014-01-19T09:35:34Z</time>
      </trkpt>
      <trkpt lat="49.62105" lon="3.05801">
        <ele>170.5</ele>
        <time>2014-01-19T09:35:53Z</time>
      </trkpt>
      <trkpt lat="49.62087" lon="3.05806">
        <ele>171.85</ele>
        <time>2014-01-19T09:36:11Z</time>
      </trkpt>
      <trkpt lat="49.62073" lon="3.05824">
        <ele>171.98</ele>
        <time>2014-01-19T09:36:29Z</time>
      </trkpt>
      <trkpt lat="49.62059" lon="3.05846">
        <ele>171.83</ele>
        <time>2014-01-19T09:36:52Z</time>
      </trkpt>
      <trkpt lat="49.62047" lon="3.05871">
        <ele>170.9</ele>
        <time>2014-01-19T09:37:02Z</time>
      </trkpt>
      <trkpt lat="49.62058" lon="3.05893">
        <ele>165.8</ele>
        <time>2014-01-19T09:38:40Z</time>
      </trkpt>
      <trkpt lat="49.6204" lon="3.05889">
        <ele>170.27</ele>
        <time>2014-01-19T09:40:46Z</time>
      </trkpt>
      <trkpt lat="49.62026" lon="3.05914">
        <ele>170.35</ele>
        <time>2014-01-19T09:41:54Z</time>
      </trkpt>
      <trkpt lat="49.62015" lon="3.05949">
        <ele>171.67</ele>
        <time>2014-01-19T09:42:13Z</time>
      </trkpt>
      <trkpt lat="49.6202" lon="3.05981">
        <ele>169.61</ele>
        <time>2014-01-19T09:42:21Z</time>
      </trkpt>
      <trkpt lat="49.62027" lon="3.06027">
        <ele>167.32</ele>
        <time>2014-01-19T09:42:30Z</time>
      </trkpt>
      <trkpt lat="49.62031" lon="3.06061">
        <ele>166.25</ele>
        <time>2014-01-19T09:42:35Z</time>
      </trkpt>
      <trkpt lat="49.62043" lon="3.06101">
        <ele>164.26</ele>
        <time>2014-01-19T09:42:44Z</time>
      </trkpt>
      <trkpt lat="49.62046" lon="3.06144">
        <ele>163.52</ele>
        <time>2014-01-19T09:42:53Z</time>
      </trkpt>
      <trkpt lat="49.62044" lon="3.06213">
        <ele>164.14</ele>
        <time>2014-01-19T09:43:02Z</time>
      </trkpt>
      <trkpt lat="49.62043" lon="3.06247">
        <ele>164.82</ele>
        <time>2014-01-19T09:43:06Z</time>
      </trkpt>
      <trkpt lat="49.62044" lon="3.06286">
        <ele>164.22</ele>
        <time>2014-01-19T09:43:11Z</time>
      </trkpt>
      <trkpt lat="49.62041" lon="3.06324">
        <ele>164.22</ele>
        <time>2014-01-19T09:43:16Z</time>
      </trkpt>
      <trkpt lat="49.6204" lon="3.06373">
        <ele>164.56</ele>
        <time>2014-01-19T09:43:25Z</time>
      </trkpt>
      <trkpt lat="49.62042" lon="3.06401">
        <ele>164.3</ele>
        <time>2014-01-19T09:43:29Z</time>
      </trkpt>
      <trkpt lat="49.6205" lon="3.06436">
        <ele>163.96</ele>
        <time>2014-01-19T09:43:34Z</time>
      </trkpt>
      <trkpt lat="49.62059" lon="3.0646">
        <ele>163.45</ele>
        <time>2014-01-19T09:43:38Z</time>
      </trkpt>
      <trkpt lat="49.62067" lon="3.06492">
        <ele>163.42</ele>
        <time>2014-01-19T09:43:43Z</time>
      </trkpt>
      <trkpt lat="49.62063" lon="3.0654">
        <ele>166.26</ele>
        <time>2014-01-19T09:43:52Z</time>
      </trkpt>
      <trkpt lat="49.62057" lon="3.06575">
        <ele>168.49</ele>
        <time>2014-01-19T09:44:06Z</time>
      </trkpt>
      <trkpt lat="49.62053" lon="3.06612">
        <ele>169.66</ele>
        <time>2014-01-19T09:44:14Z</time>
      </trkpt>
      <trkpt lat="49.62047" lon="3.06645">
        <ele>170.68</ele>
        <time>2014-01-19T09:44:19Z</time>
      </trkpt>
      <trkpt lat="49.62038" lon="3.06676">
        <ele>171.98</ele>
        <time>2014-01-19T09:44:27Z</time>
      </trkpt>
      <trkpt lat="49.6203" lon="3.06715">
        <ele>173.18</ele>
        <time>2014-01-19T09:44:37Z</time>
      </trkpt>
      <trkpt lat="49.62016" lon="3.06741">
        <ele>175.03</ele>
        <time>2014-01-19T09:44:45Z</time>
      </trkpt>
      <trkpt lat="49.62001" lon="3.0677">
        <ele>176.92</ele>
        <time>2014-01-19T09:44:55Z</time>
      </trkpt>
      <trkpt lat="49.61992" lon="3.06799">
        <ele>176.3</ele>
        <time>2014-01-19T09:45:05Z</time>
      </trkpt>
      <trkpt lat="49.61978" lon="3.06818">
        <ele>175.11</ele>
        <time>2014-01-19T09:45:19Z</time>
      </trkpt>
      <trkpt lat="49.61959" lon="3.06828">
        <ele>173.58</ele>
        <time>2014-01-19T09:45:24Z</time>
      </trkpt>
      <trkpt lat="49.61934" lon="3.06848">
        <ele>172.36</ele>
        <time>2014-01-19T09:45:33Z</time>
      </trkpt>
      <trkpt lat="49.61914" lon="3.06837">
        <ele>170.07</ele>
        <time>2014-01-19T09:45:42Z</time>
      </trkpt>
      <trkpt lat="49.61894" lon="3.06812">
        <ele>167.95</ele>
        <time>2014-01-19T09:45:56Z</time>
      </trkpt>
      <trkpt lat="49.61866" lon="3.068">
        <ele>164.87</ele>
        <time>2014-01-19T09:46:05Z</time>
      </trkpt>
      <trkpt lat="49.61847" lon="3.0679">
        <ele>162.35</ele>
        <time>2014-01-19T09:46:09Z</time>
      </trkpt>
      <trkpt lat="49.61817" lon="3.06774">
        <ele>158.02</ele>
        <time>2014-01-19T09:46:14Z</time>
      </trkpt>
      <trkpt lat="49.61792" lon="3.06768">
        <ele>154.98</ele>
        <time>2014-01-19T09:46:18Z</time>
      </trkpt>
      <trkpt lat="49.6176" lon="3.06766">
        <ele>151.5</ele>
        <time>2014-01-19T09:46:23Z</time>
      </trkpt>
      <trkpt lat="49.61741" lon="3.06756">
        <ele>148.75</ele>
        <time>2014-01-19T09:46:27Z</time>
      </trkpt>
      <trkpt lat="49.61713" lon="3.06744">
        <ele>145.69</ele>
        <time>2014-01-19T09:46:32Z</time>
      </trkpt>
      <trkpt lat="49.6168" lon="3.06734">
        <ele>142.56</ele>
        <time>2014-01-19T09:46:37Z</time>
      </trkpt>
      <trkpt lat="49.61659" lon="3.06734">
        <ele>140.17</ele>
        <time>2014-01-19T09:46:41Z</time>
      </trkpt>
      <trkpt lat="49.61641" lon="3.06734">
        <ele>137.15</ele>
        <time>2014-01-19T09:46:45Z</time>
      </trkpt>
      <trkpt lat="49.61611" lon="3.06753">
        <ele>132.63</ele>
        <time>2014-01-19T09:46:50Z</time>
      </trkpt>
      <trkpt lat="49.61584" lon="3.06773">
        <ele>128.11</ele>
        <time>2014-01-19T09:46:55Z</time>
      </trkpt>
      <trkpt lat="49.61559" lon="3.06788">
        <ele>123.43</ele>
        <time>2014-01-19T09:47:04Z</time>
      </trkpt>
      <trkpt lat="49.6155" lon="3.06816">
        <ele>121.82</ele>
        <time>2014-01-19T09:47:09Z</time>
      </trkpt>
      <trkpt lat="49.6154" lon="3.0684">
        <ele>120.41</ele>
        <time>2014-01-19T09:47:14Z</time>
      </trkpt>
      <trkpt lat="49.6152" lon="3.06858">
        <ele>117.43</ele>
        <time>2014-01-19T09:47:22Z</time>
      </trkpt>
      <trkpt lat="49.615" lon="3.06862">
        <ele>114.1</ele>
        <time>2014-01-19T09:47:27Z</time>
      </trkpt>
      <trkpt lat="49.61481" lon="3.06871">
        <ele>112.81</ele>
        <time>2014-01-19T09:47:32Z</time>
      </trkpt>
      <trkpt lat="49.61461" lon="3.06885">
        <ele>111.31</ele>
        <time>2014-01-19T09:47:37Z</time>
      </trkpt>
      <trkpt lat="49.61431" lon="3.06911">
        <ele>108.55</ele>
        <time>2014-01-19T09:47:45Z</time>
      </trkpt>
      <trkpt lat="49.61402" lon="3.06931">
        <ele>106.73</ele>
        <time>2014-01-19T09:47:55Z</time>
      </trkpt>
      <trkpt lat="49.61381" lon="3.06934">
        <ele>106.2</ele>
        <time>2014-01-19T09:48:03Z</time>
      </trkpt>
      <trkpt lat="49.61363" lon="3.06941">
        <ele>105.93</ele>
        <time>2014-01-19T09:48:12Z</time>
      </trkpt>
      <trkpt lat="49.61378" lon="3.06973">
        <ele>107.21</ele>
        <time>2014-01-19T09:48:37Z</time>
      </trkpt>
      <trkpt lat="49.61394" lon="3.07003">
        <ele>108.11</ele>
        <time>2014-01-19T09:48:45Z</time>
      </trkpt>
      <trkpt lat="49.61413" lon="3.07035">
        <ele>109.3</ele>
        <time>2014-01-19T09:48:54Z</time>
      </trkpt>
      <trkpt lat="49.61436" lon="3.07069">
        <ele>111.37</ele>
        <time>2014-01-19T09:49:03Z</time>
      </trkpt>
      <trkpt lat="49.61448" lon="3.0709">
        <ele>112.35</ele>
        <time>2014-01-19T09:49:08Z</time>
      </trkpt>
      <trkpt lat="49.6147" lon="3.07124">
        <ele>114.39</ele>
        <time>2014-01-19T09:49:17Z</time>
      </trkpt>
      <trkpt lat="49.6149" lon="3.07156">
        <ele>116.27</ele>
        <time>2014-01-19T09:49:26Z</time>
      </trkpt>
      <trkpt lat="49.6151" lon="3.07184">
        <ele>118.66</ele>
        <time>2014-01-19T09:49:35Z</time>
      </trkpt>
      <trkpt lat="49.61522" lon="3.07221">
        <ele>120.86</ele>
        <time>2014-01-19T09:49:44Z</time>
      </trkpt>
      <trkpt lat="49.61529" lon="3.07252">
        <ele>121.98</ele>
        <time>2014-01-19T09:49:53Z</time>
      </trkpt>
      <trkpt lat="49.61534" lon="3.0729">
        <ele>121.97</ele>
        <time>2014-01-19T09:50:02Z</time>
      </trkpt>
      <trkpt lat="49.61534" lon="3.07329">
        <ele>122.16</ele>
        <time>2014-01-19T09:50:11Z</time>
      </trkpt>
      <trkpt lat="49.61528" lon="3.07364">
        <ele>123.06</ele>
        <time>2014-01-19T09:50:20Z</time>
      </trkpt>
      <trkpt lat="49.61524" lon="3.07398">
        <ele>123.77</ele>
        <time>2014-01-19T09:50:29Z</time>
      </trkpt>
      <trkpt lat="49.61519" lon="3.07436">
        <ele>124.54</ele>
        <time>2014-01-19T09:50:38Z</time>
      </trkpt>
      <trkpt lat="49.61516" lon="3.07468">
        <ele>125.34</ele>
        <time>2014-01-19T09:50:47Z</time>
      </trkpt>
      <trkpt lat="49.6151" lon="3.07505">
        <ele>126.26</ele>
        <time>2014-01-19T09:50:56Z</time>
      </trkpt>
      <trkpt lat="49.61509" lon="3.07544">
        <ele>129.08</ele>
        <time>2014-01-19T09:51:05Z</time>
      </trkpt>
      <trkpt lat="49.61515" lon="3.07574">
        <ele>131.53</ele>
        <time>2014-01-19T09:51:14Z</time>
      </trkpt>
      <trkpt lat="49.61523" lon="3.07605">
        <ele>132.85</ele>
        <time>2014-01-19T09:51:27Z</time>
      </trkpt>
      <trkpt lat="49.61535" lon="3.07631">
        <ele>133.43</ele>
        <time>2014-01-19T09:51:37Z</time>
      </trkpt>
      <trkpt lat="49.6154" lon="3.07661">
        <ele>133.92</ele>
        <time>2014-01-19T09:51:45Z</time>
      </trkpt>
      <trkpt lat="49.61545" lon="3.07702">
        <ele>134.71</ele>
        <time>2014-01-19T09:51:55Z</time>
      </trkpt>
      <trkpt lat="49.61543" lon="3.07734">
        <ele>135.52</ele>
        <time>2014-01-19T09:52:03Z</time>
      </trkpt>
      <trkpt lat="49.61537" lon="3.07772">
        <ele>137.41</ele>
        <time>2014-01-19T09:52:12Z</time>
      </trkpt>
      <trkpt lat="49.61532" lon="3.07807">
        <ele>139.82</ele>
        <time>2014-01-19T09:52:21Z</time>
      </trkpt>
      <trkpt lat="49.61526" lon="3.07845">
        <ele>142.86</ele>
        <time>2014-01-19T09:52:31Z</time>
      </trkpt>
      <trkpt lat="49.61522" lon="3.07875">
        <ele>145.65</ele>
        <time>2014-01-19T09:52:40Z</time>
      </trkpt>
      <trkpt lat="49.61523" lon="3.0791">
        <ele>148.37</ele>
        <time>2014-01-19T09:52:50Z</time>
      </trkpt>
      <trkpt lat="49.61535" lon="3.07944">
        <ele>150.84</ele>
        <time>2014-01-19T09:53:00Z</time>
      </trkpt>
      <trkpt lat="49.61554" lon="3.07972">
        <ele>152</ele>
        <time>2014-01-19T09:53:09Z</time>
      </trkpt>
      <trkpt lat="49.61577" lon="3.08003">
        <ele>153.02</ele>
        <time>2014-01-19T09:53:19Z</time>
      </trkpt>
      <trkpt lat="49.61594" lon="3.08026">
        <ele>153.96</ele>
        <time>2014-01-19T09:53:27Z</time>
      </trkpt>
      <trkpt lat="49.61615" lon="3.08058">
        <ele>155.66</ele>
        <time>2014-01-19T09:53:37Z</time>
      </trkpt>
      <trkpt lat="49.61641" lon="3.08086">
        <ele>156.49</ele>
        <time>2014-01-19T09:53:47Z</time>
      </trkpt>
      <trkpt lat="49.61664" lon="3.08102">
        <ele>157.13</ele>
        <time>2014-01-19T09:53:56Z</time>
      </trkpt>
      <trkpt lat="49.61702" lon="3.08095">
        <ele>159.5</ele>
        <time>2014-01-19T09:54:05Z</time>
      </trkpt>
      <trkpt lat="49.61714" lon="3.08059">
        <ele>159.26</ele>
        <time>2014-01-19T09:54:14Z</time>
      </trkpt>
      <trkpt lat="49.61721" lon="3.08017">
        <ele>158.73</ele>
        <time>2014-01-19T09:54:24Z</time>
      </trkpt>
      <trkpt lat="49.61741" lon="3.07983">
        <ele>159.44</ele>
        <time>2014-01-19T09:54:34Z</time>
      </trkpt>
      <trkpt lat="49.6177" lon="3.07951">
        <ele>160.06</ele>
        <time>2014-01-19T09:54:44Z</time>
      </trkpt>
      <trkpt lat="49.61785" lon="3.07936">
        <ele>160.44</ele>
        <time>2014-01-19T09:54:49Z</time>
      </trkpt>
      <trkpt lat="49.61814" lon="3.07935">
        <ele>163.39</ele>
        <time>2014-01-19T09:54:57Z</time>
      </trkpt>
      <trkpt lat="49.61843" lon="3.07942">
        <ele>166.36</ele>
        <time>2014-01-19T09:55:07Z</time>
      </trkpt>
      <trkpt lat="49.61868" lon="3.07949">
        <ele>167.23</ele>
        <time>2014-01-19T09:55:15Z</time>
      </trkpt>
      <trkpt lat="49.61885" lon="3.07955">
        <ele>167.69</ele>
        <time>2014-01-19T09:55:20Z</time>
      </trkpt>
      <trkpt lat="49.61903" lon="3.0796">
        <ele>167.94</ele>
        <time>2014-01-19T09:55:25Z</time>
      </trkpt>
      <trkpt lat="49.61933" lon="3.07974">
        <ele>168.71</ele>
        <time>2014-01-19T09:55:34Z</time>
      </trkpt>
      <trkpt lat="49.61953" lon="3.07981">
        <ele>169.62</ele>
        <time>2014-01-19T09:55:39Z</time>
      </trkpt>
      <trkpt lat="49.61971" lon="3.0799">
        <ele>170.53</ele>
        <time>2014-01-19T09:55:44Z</time>
      </trkpt>
      <trkpt lat="49.61991" lon="3.07999">
        <ele>171.54</ele>
        <time>2014-01-19T09:55:49Z</time>
      </trkpt>
      <trkpt lat="49.62011" lon="3.08007">
        <ele>172.99</ele>
        <time>2014-01-19T09:55:54Z</time>
      </trkpt>
      <trkpt lat="49.6203" lon="3.08016">
        <ele>174.55</ele>
        <time>2014-01-19T09:55:59Z</time>
      </trkpt>
      <trkpt lat="49.62058" lon="3.08024">
        <ele>176.45</ele>
        <time>2014-01-19T09:56:08Z</time>
      </trkpt>
      <trkpt lat="49.62064" lon="3.08058">
        <ele>179.23</ele>
        <time>2014-01-19T10:02:21Z</time>
      </trkpt>
      <trkpt lat="49.62073" lon="3.08087">
        <ele>181.7</ele>
        <time>2014-01-19T10:02:40Z</time>
      </trkpt>
      <trkpt lat="49.62075" lon="3.08118">
        <ele>183.82</ele>
        <time>2014-01-19T10:02:55Z</time>
      </trkpt>
      <trkpt lat="49.62083" lon="3.0815">
        <ele>186</ele>
        <time>2014-01-19T10:03:09Z</time>
      </trkpt>
      <trkpt lat="49.62087" lon="3.08181">
        <ele>187.72</ele>
        <time>2014-01-19T10:03:19Z</time>
      </trkpt>
      <trkpt lat="49.62096" lon="3.08214">
        <ele>189.27</ele>
        <time>2014-01-19T10:03:33Z</time>
      </trkpt>
      <trkpt lat="49.62105" lon="3.08241">
        <ele>190.36</ele>
        <time>2014-01-19T10:03:56Z</time>
      </trkpt>
      <trkpt lat="49.62119" lon="3.0826">
        <ele>190.52</ele>
        <time>2014-01-19T10:04:09Z</time>
      </trkpt>
      <trkpt lat="49.62126" lon="3.08297">
        <ele>190.2</ele>
        <time>2014-01-19T10:04:23Z</time>
      </trkpt>
      <trkpt lat="49.62139" lon="3.08324">
        <ele>189.74</ele>
        <time>2014-01-19T10:04:36Z</time>
      </trkpt>
      <trkpt lat="49.62147" lon="3.08361">
        <ele>189.72</ele>
        <time>2014-01-19T10:04:50Z</time>
      </trkpt>
      <trkpt lat="49.62159" lon="3.08387">
        <ele>189.77</ele>
        <time>2014-01-19T10:05:04Z</time>
      </trkpt>
      <trkpt lat="49.6217" lon="3.08416">
        <ele>189.77</ele>
        <time>2014-01-19T10:05:19Z</time>
      </trkpt>
      <trkpt lat="49.62172" lon="3.08444">
        <ele>188.34</ele>
        <time>2014-01-19T10:05:32Z</time>
      </trkpt>
      <trkpt lat="49.62162" lon="3.08468">
        <ele>187.75</ele>
        <time>2014-01-19T10:06:00Z</time>
      </trkpt>
      <trkpt lat="49.62175" lon="3.08445">
        <ele>188.08</ele>
        <time>2014-01-19T10:06:37Z</time>
      </trkpt>
      <trkpt lat="49.62193" lon="3.08441">
        <ele>186.92</ele>
        <time>2014-01-19T10:07:05Z</time>
      </trkpt>
      <trkpt lat="49.62213" lon="3.08443">
        <ele>185.4</ele>
        <time>2014-01-19T10:07:18Z</time>
      </trkpt>
      <trkpt lat="49.62232" lon="3.08444">
        <ele>184.01</ele>
        <time>2014-01-19T10:07:32Z</time>
      </trkpt>
      <trkpt lat="49.62251" lon="3.08456">
        <ele>182.01</ele>
        <time>2014-01-19T10:07:45Z</time>
      </trkpt>
      <trkpt lat="49.62284" lon="3.08476">
        <ele>177.54</ele>
        <time>2014-01-19T10:07:55Z</time>
      </trkpt>
      <trkpt lat="49.62306" lon="3.08484">
        <ele>174.58</ele>
        <time>2014-01-19T10:07:59Z</time>
      </trkpt>
      <trkpt lat="49.62324" lon="3.08504">
        <ele>170.58</ele>
        <time>2014-01-19T10:08:09Z</time>
      </trkpt>
      <trkpt lat="49.62344" lon="3.08525">
        <ele>165.27</ele>
        <time>2014-01-19T10:08:50Z</time>
      </trkpt>
      <trkpt lat="49.62364" lon="3.08523">
        <ele>163.18</ele>
        <time>2014-01-19T10:09:26Z</time>
      </trkpt>
      <trkpt lat="49.62384" lon="3.08531">
        <ele>159.79</ele>
        <time>2014-01-19T10:09:39Z</time>
      </trkpt>
      <trkpt lat="49.62403" lon="3.0853">
        <ele>157.72</ele>
        <time>2014-01-19T10:09:57Z</time>
      </trkpt>
      <trkpt lat="49.62379" lon="3.08526">
        <ele>161.04</ele>
        <time>2014-01-19T10:11:11Z</time>
      </trkpt>
      <trkpt lat="49.62361" lon="3.08518">
        <ele>164.16</ele>
        <time>2014-01-19T10:12:25Z</time>
      </trkpt>
      <trkpt lat="49.62367" lon="3.08485">
        <ele>167.53</ele>
        <time>2014-01-19T10:13:25Z</time>
      </trkpt>
      <trkpt lat="49.62381" lon="3.08467">
        <ele>167.96</ele>
        <time>2014-01-19T10:13:48Z</time>
      </trkpt>
      <trkpt lat="49.62366" lon="3.08488">
        <ele>167.36</ele>
        <time>2014-01-19T10:14:56Z</time>
      </trkpt>
      <trkpt lat="49.62352" lon="3.08512">
        <ele>166.17</ele>
        <time>2014-01-19T10:15:47Z</time>
      </trkpt>
      <trkpt lat="49.62333" lon="3.0852">
        <ele>167.21</ele>
        <time>2014-01-19T10:16:21Z</time>
      </trkpt>
      <trkpt lat="49.62323" lon="3.08492">
        <ele>172.01</ele>
        <time>2014-01-19T10:17:24Z</time>
      </trkpt>
      <trkpt lat="49.62309" lon="3.08473">
        <ele>175.1</ele>
        <time>2014-01-19T10:18:00Z</time>
      </trkpt>
      <trkpt lat="49.62291" lon="3.08469">
        <ele>177.39</ele>
        <time>2014-01-19T10:18:33Z</time>
      </trkpt>
      <trkpt lat="49.62271" lon="3.08454">
        <ele>180.25</ele>
        <time>2014-01-19T10:18:47Z</time>
      </trkpt>
      <trkpt lat="49.6225" lon="3.08446">
        <ele>182.6</ele>
        <time>2014-01-19T10:19:01Z</time>
      </trkpt>
      <trkpt lat="49.62229" lon="3.08446">
        <ele>184.13</ele>
        <time>2014-01-19T10:19:15Z</time>
      </trkpt>
      <trkpt lat="49.6221" lon="3.08438">
        <ele>185.87</ele>
        <time>2014-01-19T10:19:29Z</time>
      </trkpt>
      <trkpt lat="49.62201" lon="3.08408">
        <ele>187.51</ele>
        <time>2014-01-19T10:19:43Z</time>
      </trkpt>
      <trkpt lat="49.62194" lon="3.0838">
        <ele>187.86</ele>
        <time>2014-01-19T10:19:56Z</time>
      </trkpt>
      <trkpt lat="49.62184" lon="3.0835">
        <ele>188.31</ele>
        <time>2014-01-19T10:20:05Z</time>
      </trkpt>
      <trkpt lat="49.62171" lon="3.08318">
        <ele>189.01</ele>
        <time>2014-01-19T10:20:14Z</time>
      </trkpt>
      <trkpt lat="49.62161" lon="3.08293">
        <ele>189.59</ele>
        <time>2014-01-19T10:20:23Z</time>
      </trkpt>
      <trkpt lat="49.62143" lon="3.08264">
        <ele>190.17</ele>
        <time>2014-01-19T10:20:37Z</time>
      </trkpt>
      <trkpt lat="49.62134" lon="3.08237">
        <ele>189.97</ele>
        <time>2014-01-19T10:20:45Z</time>
      </trkpt>
      <trkpt lat="49.6212" lon="3.08214">
        <ele>189.19</ele>
        <time>2014-01-19T10:20:55Z</time>
      </trkpt>
      <trkpt lat="49.62113" lon="3.08187">
        <ele>188.16</ele>
        <time>2014-01-19T10:21:12Z</time>
      </trkpt>
      <trkpt lat="49.62101" lon="3.0816">
        <ele>186.86</ele>
        <time>2014-01-19T10:21:45Z</time>
      </trkpt>
      <trkpt lat="49.62093" lon="3.08126">
        <ele>184.91</ele>
        <time>2014-01-19T10:21:59Z</time>
      </trkpt>
      <trkpt lat="49.62081" lon="3.08089">
        <ele>182.2</ele>
        <time>2014-01-19T10:22:08Z</time>
      </trkpt>
      <trkpt lat="49.62073" lon="3.08052">
        <ele>179.27</ele>
        <time>2014-01-19T10:22:17Z</time>
      </trkpt>
      <trkpt lat="49.62048" lon="3.08048">
        <ele>177.8</ele>
        <time>2014-01-19T10:23:26Z</time>
      </trkpt>
      <trkpt lat="49.62029" lon="3.08059">
        <ele>177.65</ele>
        <time>2014-01-19T10:23:35Z</time>
      </trkpt>
      <trkpt lat="49.62001" lon="3.08081">
        <ele>177.87</ele>
        <time>2014-01-19T10:23:45Z</time>
      </trkpt>
      <trkpt lat="49.61971" lon="3.08109">
        <ele>178.52</ele>
        <time>2014-01-19T10:23:55Z</time>
      </trkpt>
      <trkpt lat="49.61953" lon="3.08128">
        <ele>179.11</ele>
        <time>2014-01-19T10:24:03Z</time>
      </trkpt>
      <trkpt lat="49.61924" lon="3.08147">
        <ele>178.7</ele>
        <time>2014-01-19T10:24:13Z</time>
      </trkpt>
      <trkpt lat="49.619" lon="3.08163">
        <ele>178.91</ele>
        <time>2014-01-19T10:24:21Z</time>
      </trkpt>
      <trkpt lat="49.61876" lon="3.08187">
        <ele>178.15</ele>
        <time>2014-01-19T10:24:31Z</time>
      </trkpt>
      <trkpt lat="49.61855" lon="3.08214">
        <ele>176.63</ele>
        <time>2014-01-19T10:24:39Z</time>
      </trkpt>
      <trkpt lat="49.61841" lon="3.08238">
        <ele>175.07</ele>
        <time>2014-01-19T10:24:44Z</time>
      </trkpt>
      <trkpt lat="49.61823" lon="3.08267">
        <ele>173.67</ele>
        <time>2014-01-19T10:24:49Z</time>
      </trkpt>
      <trkpt lat="49.61805" lon="3.08289">
        <ele>173.16</ele>
        <time>2014-01-19T10:24:57Z</time>
      </trkpt>
      <trkpt lat="49.61786" lon="3.08309">
        <ele>172.77</ele>
        <time>2014-01-19T10:25:07Z</time>
      </trkpt>
      <trkpt lat="49.61771" lon="3.08324">
        <ele>172.67</ele>
        <time>2014-01-19T10:25:34Z</time>
      </trkpt>
      <trkpt lat="49.61776" lon="3.08357">
        <ele>174.62</ele>
        <time>2014-01-19T10:25:43Z</time>
      </trkpt>
      <trkpt lat="49.61788" lon="3.08389">
        <ele>176.41</ele>
        <time>2014-01-19T10:25:52Z</time>
      </trkpt>
      <trkpt lat="49.61781" lon="3.08425">
        <ele>177.71</ele>
        <time>2014-01-19T10:26:05Z</time>
      </trkpt>
      <trkpt lat="49.61774" lon="3.08461">
        <ele>179.03</ele>
        <time>2014-01-19T10:26:14Z</time>
      </trkpt>
      <trkpt lat="49.61767" lon="3.0849">
        <ele>180.01</ele>
        <time>2014-01-19T10:26:23Z</time>
      </trkpt>
      <trkpt lat="49.61756" lon="3.08526">
        <ele>181.08</ele>
        <time>2014-01-19T10:26:37Z</time>
      </trkpt>
      <trkpt lat="49.61737" lon="3.08538">
        <ele>181.78</ele>
        <time>2014-01-19T10:26:50Z</time>
      </trkpt>
      <trkpt lat="49.61718" lon="3.08551">
        <ele>182.85</ele>
        <time>2014-01-19T10:27:09Z</time>
      </trkpt>
      <trkpt lat="49.61699" lon="3.08562">
        <ele>183.91</ele>
        <time>2014-01-19T10:27:23Z</time>
      </trkpt>
      <trkpt lat="49.61676" lon="3.08565">
        <ele>184.82</ele>
        <time>2014-01-19T10:27:37Z</time>
      </trkpt>
      <trkpt lat="49.61658" lon="3.08579">
        <ele>185.48</ele>
        <time>2014-01-19T10:27:50Z</time>
      </trkpt>
      <trkpt lat="49.61638" lon="3.0861">
        <ele>185.9</ele>
        <time>2014-01-19T10:28:04Z</time>
      </trkpt>
      <trkpt lat="49.61626" lon="3.08632">
        <ele>186.29</ele>
        <time>2014-01-19T10:28:13Z</time>
      </trkpt>
      <trkpt lat="49.61613" lon="3.08656">
        <ele>186.66</ele>
        <time>2014-01-19T10:28:26Z</time>
      </trkpt>
      <trkpt lat="49.61601" lon="3.08681">
        <ele>186.93</ele>
        <time>2014-01-19T10:28:40Z</time>
      </trkpt>
      <trkpt lat="49.61597" lon="3.08711">
        <ele>187.47</ele>
        <time>2014-01-19T10:29:03Z</time>
      </trkpt>
      <trkpt lat="49.61611" lon="3.08732">
        <ele>188.31</ele>
        <time>2014-01-19T10:29:26Z</time>
      </trkpt>
      <trkpt lat="49.61624" lon="3.08768">
        <ele>189.1</ele>
        <time>2014-01-19T10:29:40Z</time>
      </trkpt>
      <trkpt lat="49.61634" lon="3.08805">
        <ele>189.33</ele>
        <time>2014-01-19T10:29:53Z</time>
      </trkpt>
      <trkpt lat="49.61647" lon="3.0883">
        <ele>189.25</ele>
        <time>2014-01-19T10:30:02Z</time>
      </trkpt>
      <trkpt lat="49.61663" lon="3.08863">
        <ele>189.03</ele>
        <time>2014-01-19T10:30:16Z</time>
      </trkpt>
      <trkpt lat="49.61676" lon="3.08889">
        <ele>188.85</ele>
        <time>2014-01-19T10:30:34Z</time>
      </trkpt>
      <trkpt lat="49.61692" lon="3.0891">
        <ele>188.45</ele>
        <time>2014-01-19T10:30:43Z</time>
      </trkpt>
      <trkpt lat="49.61701" lon="3.08941">
        <ele>187.84</ele>
        <time>2014-01-19T10:30:56Z</time>
      </trkpt>
      <trkpt lat="49.61714" lon="3.0896">
        <ele>187.41</ele>
        <time>2014-01-19T10:31:14Z</time>
      </trkpt>
      <trkpt lat="49.61723" lon="3.08984">
        <ele>187.12</ele>
        <time>2014-01-19T10:31:27Z</time>
      </trkpt>
      <trkpt lat="49.61745" lon="3.08996">
        <ele>187.01</ele>
        <time>2014-01-19T10:31:42Z</time>
      </trkpt>
      <trkpt lat="49.61766" lon="3.09002">
        <ele>187.73</ele>
        <time>2014-01-19T10:31:56Z</time>
      </trkpt>
      <trkpt lat="49.61783" lon="3.08989">
        <ele>188.52</ele>
        <time>2014-01-19T10:32:14Z</time>
      </trkpt>
      <trkpt lat="49.618" lon="3.08995">
        <ele>189.38</ele>
        <time>2014-01-19T10:32:43Z</time>
      </trkpt>
      <trkpt lat="49.61817" lon="3.0898">
        <ele>190.01</ele>
        <time>2014-01-19T10:33:02Z</time>
      </trkpt>
      <trkpt lat="49.61835" lon="3.08964">
        <ele>190.57</ele>
        <time>2014-01-19T10:33:21Z</time>
      </trkpt>
      <trkpt lat="49.61852" lon="3.08974">
        <ele>190.76</ele>
        <time>2014-01-19T10:33:35Z</time>
      </trkpt>
      <trkpt lat="49.61873" lon="3.08971">
        <ele>190.82</ele>
        <time>2014-01-19T10:34:02Z</time>
      </trkpt>
      <trkpt lat="49.61891" lon="3.08978">
        <ele>190.92</ele>
        <time>2014-01-19T10:34:17Z</time>
      </trkpt>
      <trkpt lat="49.61913" lon="3.08981">
        <ele>190.99</ele>
        <time>2014-01-19T10:34:41Z</time>
      </trkpt>
      <trkpt lat="49.61935" lon="3.08984">
        <ele>190.56</ele>
        <time>2014-01-19T10:35:03Z</time>
      </trkpt>
      <trkpt lat="49.61953" lon="3.08992">
        <ele>190.12</ele>
        <time>2014-01-19T10:35:12Z</time>
      </trkpt>
      <trkpt lat="49.61976" lon="3.08991">
        <ele>189.57</ele>
        <time>2014-01-19T10:35:27Z</time>
      </trkpt>
      <trkpt lat="49.62001" lon="3.08992">
        <ele>188.92</ele>
        <time>2014-01-19T10:35:36Z</time>
      </trkpt>
      <trkpt lat="49.62024" lon="3.08997">
        <ele>187.59</ele>
        <time>2014-01-19T10:35:45Z</time>
      </trkpt>
      <trkpt lat="49.62054" lon="3.09001">
        <ele>185.77</ele>
        <time>2014-01-19T10:35:59Z</time>
      </trkpt>
      <trkpt lat="49.62076" lon="3.09019">
        <ele>184.43</ele>
        <time>2014-01-19T10:36:08Z</time>
      </trkpt>
      <trkpt lat="49.62099" lon="3.09035">
        <ele>183.78</ele>
        <time>2014-01-19T10:36:17Z</time>
      </trkpt>
      <trkpt lat="49.62123" lon="3.09041">
        <ele>183.51</ele>
        <time>2014-01-19T10:36:31Z</time>
      </trkpt>
      <trkpt lat="49.62148" lon="3.09062">
        <ele>183.59</ele>
        <time>2014-01-19T10:36:40Z</time>
      </trkpt>
      <trkpt lat="49.62167" lon="3.09084">
        <ele>184.01</ele>
        <time>2014-01-19T10:37:03Z</time>
      </trkpt>
      <trkpt lat="49.62176" lon="3.09109">
        <ele>184.32</ele>
        <time>2014-01-19T10:37:13Z</time>
      </trkpt>
      <trkpt lat="49.62182" lon="3.09137">
        <ele>184.56</ele>
        <time>2014-01-19T10:37:26Z</time>
      </trkpt>
      <trkpt lat="49.62194" lon="3.09167">
        <ele>184.98</ele>
        <time>2014-01-19T10:37:44Z</time>
      </trkpt>
      <trkpt lat="49.62202" lon="3.09194">
        <ele>185.31</ele>
        <time>2014-01-19T10:37:53Z</time>
      </trkpt>
      <trkpt lat="49.62212" lon="3.09231">
        <ele>185.56</ele>
        <time>2014-01-19T10:38:07Z</time>
      </trkpt>
      <trkpt lat="49.62219" lon="3.0926">
        <ele>185.76</ele>
        <time>2014-01-19T10:38:17Z</time>
      </trkpt>
      <trkpt lat="49.62232" lon="3.09287">
        <ele>186.07</ele>
        <time>2014-01-19T10:38:31Z</time>
      </trkpt>
      <trkpt lat="49.62238" lon="3.09314">
        <ele>186.19</ele>
        <time>2014-01-19T10:39:02Z</time>
      </trkpt>
      <trkpt lat="49.62247" lon="3.09342">
        <ele>185.99</ele>
        <time>2014-01-19T10:39:15Z</time>
      </trkpt>
      <trkpt lat="49.62263" lon="3.0937">
        <ele>185.56</ele>
        <time>2014-01-19T10:39:25Z</time>
      </trkpt>
      <trkpt lat="49.62283" lon="3.09406">
        <ele>185.13</ele>
        <time>2014-01-19T10:39:38Z</time>
      </trkpt>
      <trkpt lat="49.62292" lon="3.09441">
        <ele>185</ele>
        <time>2014-01-19T10:39:47Z</time>
      </trkpt>
      <trkpt lat="49.62303" lon="3.09472">
        <ele>185</ele>
        <time>2014-01-19T10:39:56Z</time>
      </trkpt>
      <trkpt lat="49.62312" lon="3.09503">
        <ele>185.04</ele>
        <time>2014-01-19T10:40:05Z</time>
      </trkpt>
      <trkpt lat="49.62315" lon="3.09535">
        <ele>185.42</ele>
        <time>2014-01-19T10:40:18Z</time>
      </trkpt>
      <trkpt lat="49.62316" lon="3.09566">
        <ele>185.79</ele>
        <time>2014-01-19T10:40:37Z</time>
      </trkpt>
      <trkpt lat="49.62321" lon="3.09607">
        <ele>186.2</ele>
        <time>2014-01-19T10:41:35Z</time>
      </trkpt>
      <trkpt lat="49.62334" lon="3.09631">
        <ele>186.57</ele>
        <time>2014-01-19T10:41:48Z</time>
      </trkpt>
      <trkpt lat="49.62354" lon="3.09656">
        <ele>186.69</ele>
        <time>2014-01-19T10:41:57Z</time>
      </trkpt>
      <trkpt lat="49.62366" lon="3.09692">
        <ele>185.86</ele>
        <time>2014-01-19T10:42:07Z</time>
      </trkpt>
      <trkpt lat="49.62371" lon="3.09727">
        <ele>184.97</ele>
        <time>2014-01-19T10:42:21Z</time>
      </trkpt>
      <trkpt lat="49.62382" lon="3.09763">
        <ele>184.33</ele>
        <time>2014-01-19T10:42:39Z</time>
      </trkpt>
      <trkpt lat="49.62394" lon="3.09811">
        <ele>183.34</ele>
        <time>2014-01-19T10:42:49Z</time>
      </trkpt>
      <trkpt lat="49.62403" lon="3.09836">
        <ele>183.14</ele>
        <time>2014-01-19T10:42:53Z</time>
      </trkpt>
      <trkpt lat="49.62418" lon="3.09887">
        <ele>183.39</ele>
        <time>2014-01-19T10:43:02Z</time>
      </trkpt>
      <trkpt lat="49.62425" lon="3.09917">
        <ele>183.21</ele>
        <time>2014-01-19T10:43:07Z</time>
      </trkpt>
      <trkpt lat="49.62445" lon="3.09967">
        <ele>182.66</ele>
        <time>2014-01-19T10:43:16Z</time>
      </trkpt>
      <trkpt lat="49.62454" lon="3.09993">
        <ele>182.17</ele>
        <time>2014-01-19T10:43:20Z</time>
      </trkpt>
      <trkpt lat="49.62471" lon="3.10021">
        <ele>182.16</ele>
        <time>2014-01-19T10:43:29Z</time>
      </trkpt>
      <trkpt lat="49.6248" lon="3.10056">
        <ele>182.51</ele>
        <time>2014-01-19T10:44:35Z</time>
      </trkpt>
      <trkpt lat="49.62488" lon="3.10094">
        <ele>182.89</ele>
        <time>2014-01-19T10:44:45Z</time>
      </trkpt>
      <trkpt lat="49.625" lon="3.10145">
        <ele>183</ele>
        <time>2014-01-19T10:44:55Z</time>
      </trkpt>
      <trkpt lat="49.62507" lon="3.10173">
        <ele>182.71</ele>
        <time>2014-01-19T10:45:00Z</time>
      </trkpt>
      <trkpt lat="49.62519" lon="3.10221">
        <ele>181.12</ele>
        <time>2014-01-19T10:45:09Z</time>
      </trkpt>
      <trkpt lat="49.62529" lon="3.10254">
        <ele>180.33</ele>
        <time>2014-01-19T10:45:23Z</time>
      </trkpt>
      <trkpt lat="49.62536" lon="3.10281">
        <ele>180.27</ele>
        <time>2014-01-19T10:45:32Z</time>
      </trkpt>
      <trkpt lat="49.62544" lon="3.10307">
        <ele>180.16</ele>
        <time>2014-01-19T10:45:41Z</time>
      </trkpt>
      <trkpt lat="49.62559" lon="3.10348">
        <ele>179.7</ele>
        <time>2014-01-19T10:45:59Z</time>
      </trkpt>
      <trkpt lat="49.62571" lon="3.1039">
        <ele>178.75</ele>
        <time>2014-01-19T10:46:08Z</time>
      </trkpt>
      <trkpt lat="49.62581" lon="3.1044">
        <ele>178.01</ele>
        <time>2014-01-19T10:46:17Z</time>
      </trkpt>
      <trkpt lat="49.62595" lon="3.10488">
        <ele>177.59</ele>
        <time>2014-01-19T10:46:26Z</time>
      </trkpt>
      <trkpt lat="49.6259" lon="3.1045">
        <ele>177.8</ele>
        <time>2014-01-19T10:47:14Z</time>
      </trkpt>
      <trkpt lat="49.6258" lon="3.10401">
        <ele>178.4</ele>
        <time>2014-01-19T10:47:24Z</time>
      </trkpt>
      <trkpt lat="49.62571" lon="3.10377">
        <ele>179.02</ele>
        <time>2014-01-19T10:47:29Z</time>
      </trkpt>
      <trkpt lat="49.6256" lon="3.10332">
        <ele>180.01</ele>
        <time>2014-01-19T10:47:38Z</time>
      </trkpt>
      <trkpt lat="49.6255" lon="3.10291">
        <ele>180.3</ele>
        <time>2014-01-19T10:47:47Z</time>
      </trkpt>
      <trkpt lat="49.62539" lon="3.10269">
        <ele>180.36</ele>
        <time>2014-01-19T10:48:00Z</time>
      </trkpt>
      <trkpt lat="49.62534" lon="3.10239">
        <ele>180.69</ele>
        <time>2014-01-19T10:48:33Z</time>
      </trkpt>
      <trkpt lat="49.62516" lon="3.10203">
        <ele>181.66</ele>
        <time>2014-01-19T10:49:03Z</time>
      </trkpt>
      <trkpt lat="49.6251" lon="3.10159">
        <ele>182.88</ele>
        <time>2014-01-19T10:49:18Z</time>
      </trkpt>
      <trkpt lat="49.62496" lon="3.10126">
        <ele>183</ele>
        <time>2014-01-19T10:49:27Z</time>
      </trkpt>
      <trkpt lat="49.62489" lon="3.1009">
        <ele>182.89</ele>
        <time>2014-01-19T10:49:37Z</time>
      </trkpt>
      <trkpt lat="49.62484" lon="3.10057">
        <ele>182.55</ele>
        <time>2014-01-19T10:49:46Z</time>
      </trkpt>
      <trkpt lat="49.62479" lon="3.10031">
        <ele>182.28</ele>
        <time>2014-01-19T10:49:56Z</time>
      </trkpt>
      <trkpt lat="49.62508" lon="3.10025">
        <ele>182.2</ele>
        <time>2014-01-19T10:50:14Z</time>
      </trkpt>
      <trkpt lat="49.62534" lon="3.10019">
        <ele>181.81</ele>
        <time>2014-01-19T10:50:23Z</time>
      </trkpt>
      <trkpt lat="49.62554" lon="3.10017">
        <ele>181.55</ele>
        <time>2014-01-19T10:50:32Z</time>
      </trkpt>
      <trkpt lat="49.62576" lon="3.1001">
        <ele>181.21</ele>
        <time>2014-01-19T10:50:36Z</time>
      </trkpt>
      <trkpt lat="49.626" lon="3.10007">
        <ele>180.28</ele>
        <time>2014-01-19T10:50:41Z</time>
      </trkpt>
      <trkpt lat="49.62621" lon="3.10004">
        <ele>179.21</ele>
        <time>2014-01-19T10:50:45Z</time>
      </trkpt>
      <trkpt lat="49.6265" lon="3.1001">
        <ele>177.83</ele>
        <time>2014-01-19T10:50:50Z</time>
      </trkpt>
      <trkpt lat="49.62686" lon="3.10035">
        <ele>174.22</ele>
        <time>2014-01-19T10:50:55Z</time>
      </trkpt>
      <trkpt lat="49.62712" lon="3.10069">
        <ele>171.18</ele>
        <time>2014-01-19T10:50:59Z</time>
      </trkpt>
      <trkpt lat="49.6274" lon="3.10109">
        <ele>169.37</ele>
        <time>2014-01-19T10:51:03Z</time>
      </trkpt>
      <trkpt lat="49.62775" lon="3.10158">
        <ele>168.38</ele>
        <time>2014-01-19T10:51:08Z</time>
      </trkpt>
      <trkpt lat="49.62794" lon="3.10209">
        <ele>167.21</ele>
        <time>2014-01-19T10:51:12Z</time>
      </trkpt>
      <trkpt lat="49.6283" lon="3.10256">
        <ele>161.71</ele>
        <time>2014-01-19T10:51:17Z</time>
      </trkpt>
      <trkpt lat="49.62864" lon="3.10253">
        <ele>156.37</ele>
        <time>2014-01-19T10:51:21Z</time>
      </trkpt>
      <trkpt lat="49.62906" lon="3.10209">
        <ele>151.73</ele>
        <time>2014-01-19T10:51:26Z</time>
      </trkpt>
      <trkpt lat="49.62915" lon="3.10149">
        <ele>151.26</ele>
        <time>2014-01-19T10:51:30Z</time>
      </trkpt>
      <trkpt lat="49.62905" lon="3.1009">
        <ele>148.78</ele>
        <time>2014-01-19T10:51:35Z</time>
      </trkpt>
      <trkpt lat="49.62864" lon="3.10054">
        <ele>150.19</ele>
        <time>2014-01-19T10:51:39Z</time>
      </trkpt>
      <trkpt lat="49.62833" lon="3.09995">
        <ele>146.67</ele>
        <time>2014-01-19T10:51:44Z</time>
      </trkpt>
      <trkpt lat="49.62841" lon="3.09952">
        <ele>143.25</ele>
        <time>2014-01-19T10:51:49Z</time>
      </trkpt>
      <trkpt lat="49.62906" lon="3.09968">
        <ele>137.3</ele>
        <time>2014-01-19T10:51:54Z</time>
      </trkpt>
      <trkpt lat="49.62954" lon="3.0993">
        <ele>131.85</ele>
        <time>2014-01-19T10:51:59Z</time>
      </trkpt>
      <trkpt lat="49.63012" lon="3.09896">
        <ele>127.61</ele>
        <time>2014-01-19T10:52:04Z</time>
      </trkpt>
      <trkpt lat="49.63074" lon="3.09905">
        <ele>125.2</ele>
        <time>2014-01-19T10:52:09Z</time>
      </trkpt>
      <trkpt lat="49.63154" lon="3.09926">
        <ele>117.65</ele>
        <time>2014-01-19T10:52:14Z</time>
      </trkpt>
      <trkpt lat="49.63237" lon="3.09957">
        <ele>111.37</ele>
        <time>2014-01-19T10:52:19Z</time>
      </trkpt>
      <trkpt lat="49.63312" lon="3.09987">
        <ele>105.81</ele>
        <time>2014-01-19T10:52:24Z</time>
      </trkpt>
      <trkpt lat="49.63386" lon="3.10008">
        <ele>99.94</ele>
        <time>2014-01-19T10:52:29Z</time>
      </trkpt>
      <trkpt lat="49.63442" lon="3.10023">
        <ele>95.6</ele>
        <time>2014-01-19T10:52:33Z</time>
      </trkpt>
      <trkpt lat="49.63513" lon="3.10045">
        <ele>90.44</ele>
        <time>2014-01-19T10:52:38Z</time>
      </trkpt>
      <trkpt lat="49.63575" lon="3.10064">
        <ele>87.76</ele>
        <time>2014-01-19T10:52:43Z</time>
      </trkpt>
      <trkpt lat="49.63616" lon="3.10077">
        <ele>86.01</ele>
        <time>2014-01-19T10:52:47Z</time>
      </trkpt>
      <trkpt lat="49.63655" lon="3.10089">
        <ele>84.34</ele>
        <time>2014-01-19T10:52:51Z</time>
      </trkpt>
      <trkpt lat="49.63695" lon="3.10093">
        <ele>83.24</ele>
        <time>2014-01-19T10:52:56Z</time>
      </trkpt>
      <trkpt lat="49.63714" lon="3.10088">
        <ele>82.85</ele>
        <time>2014-01-19T10:53:05Z</time>
      </trkpt>
      <trkpt lat="49.63736" lon="3.10071">
        <ele>82.43</ele>
        <time>2014-01-19T10:53:49Z</time>
      </trkpt>
      <trkpt lat="49.63756" lon="3.10067">
        <ele>81.82</ele>
        <time>2014-01-19T10:53:57Z</time>
      </trkpt>
      <trkpt lat="49.6378" lon="3.10044">
        <ele>80.94</ele>
        <time>2014-01-19T10:54:02Z</time>
      </trkpt>
      <trkpt lat="49.63802" lon="3.10017">
        <ele>79.74</ele>
        <time>2014-01-19T10:54:06Z</time>
      </trkpt>
      <trkpt lat="49.63822" lon="3.09989">
        <ele>78.56</ele>
        <time>2014-01-19T10:54:11Z</time>
      </trkpt>
      <trkpt lat="49.63838" lon="3.09964">
        <ele>77.88</ele>
        <time>2014-01-19T10:54:15Z</time>
      </trkpt>
      <trkpt lat="49.63855" lon="3.09937">
        <ele>77.29</ele>
        <time>2014-01-19T10:54:19Z</time>
      </trkpt>
      <trkpt lat="49.63873" lon="3.09899">
        <ele>76.9</ele>
        <time>2014-01-19T10:54:24Z</time>
      </trkpt>
      <trkpt lat="49.63886" lon="3.09869">
        <ele>76.9</ele>
        <time>2014-01-19T10:54:28Z</time>
      </trkpt>
      <trkpt lat="49.639" lon="3.09842">
        <ele>76.7</ele>
        <time>2014-01-19T10:54:32Z</time>
      </trkpt>
      <trkpt lat="49.63917" lon="3.09812">
        <ele>76.53</ele>
        <time>2014-01-19T10:54:37Z</time>
      </trkpt>
      <trkpt lat="49.63935" lon="3.09784">
        <ele>76.62</ele>
        <time>2014-01-19T10:54:42Z</time>
      </trkpt>
      <trkpt lat="49.63951" lon="3.09761">
        <ele>76.55</ele>
        <time>2014-01-19T10:54:46Z</time>
      </trkpt>
      <trkpt lat="49.63973" lon="3.09733">
        <ele>75.85</ele>
        <time>2014-01-19T10:54:51Z</time>
      </trkpt>
      <trkpt lat="49.64" lon="3.09721">
        <ele>74.99</ele>
        <time>2014-01-19T10:54:56Z</time>
      </trkpt>
      <trkpt lat="49.64035" lon="3.09728">
        <ele>74.16</ele>
        <time>2014-01-19T10:55:01Z</time>
      </trkpt>
      <trkpt lat="49.64064" lon="3.09732">
        <ele>73.47</ele>
        <time>2014-01-19T10:55:05Z</time>
      </trkpt>
      <trkpt lat="49.64096" lon="3.097">
        <ele>72.72</ele>
        <time>2014-01-19T10:55:10Z</time>
      </trkpt>
      <trkpt lat="49.64123" lon="3.09668">
        <ele>72.51</ele>
        <time>2014-01-19T10:55:15Z</time>
      </trkpt>
      <trkpt lat="49.64158" lon="3.09671">
        <ele>72.01</ele>
        <time>2014-01-19T10:55:20Z</time>
      </trkpt>
      <trkpt lat="49.64184" lon="3.09684">
        <ele>71.76</ele>
        <time>2014-01-19T10:55:24Z</time>
      </trkpt>
      <trkpt lat="49.64211" lon="3.09702">
        <ele>71.47</ele>
        <time>2014-01-19T10:55:28Z</time>
      </trkpt>
      <trkpt lat="49.64245" lon="3.09719">
        <ele>71.1</ele>
        <time>2014-01-19T10:55:33Z</time>
      </trkpt>
      <trkpt lat="49.64277" lon="3.09713">
        <ele>70.69</ele>
        <time>2014-01-19T10:55:38Z</time>
      </trkpt>
      <trkpt lat="49.64304" lon="3.09697">
        <ele>70.62</ele>
        <time>2014-01-19T10:55:42Z</time>
      </trkpt>
      <trkpt lat="49.64333" lon="3.09672">
        <ele>70.84</ele>
        <time>2014-01-19T10:55:47Z</time>
      </trkpt>
      <trkpt lat="49.64355" lon="3.09644">
        <ele>71.67</ele>
        <time>2014-01-19T10:55:51Z</time>
      </trkpt>
      <trkpt lat="49.64378" lon="3.09603">
        <ele>72.49</ele>
        <time>2014-01-19T10:55:56Z</time>
      </trkpt>
      <trkpt lat="49.64392" lon="3.09556">
        <ele>72.54</ele>
        <time>2014-01-19T10:56:01Z</time>
      </trkpt>
      <trkpt lat="49.644" lon="3.09524">
        <ele>72.13</ele>
        <time>2014-01-19T10:56:05Z</time>
      </trkpt>
      <trkpt lat="49.64407" lon="3.09496">
        <ele>71.66</ele>
        <time>2014-01-19T10:56:09Z</time>
      </trkpt>
      <trkpt lat="49.64414" lon="3.09467">
        <ele>71.6</ele>
        <time>2014-01-19T10:56:13Z</time>
      </trkpt>
      <trkpt lat="49.64421" lon="3.09426">
        <ele>71.63</ele>
        <time>2014-01-19T10:56:18Z</time>
      </trkpt>
      <trkpt lat="49.6443" lon="3.09385">
        <ele>71.26</ele>
        <time>2014-01-19T10:56:23Z</time>
      </trkpt>
      <trkpt lat="49.64437" lon="3.0935">
        <ele>70.98</ele>
        <time>2014-01-19T10:56:27Z</time>
      </trkpt>
      <trkpt lat="49.64446" lon="3.09306">
        <ele>71.26</ele>
        <time>2014-01-19T10:56:32Z</time>
      </trkpt>
      <trkpt lat="49.64455" lon="3.09262">
        <ele>71.9</ele>
        <time>2014-01-19T10:56:37Z</time>
      </trkpt>
      <trkpt lat="49.64464" lon="3.09219">
        <ele>72.05</ele>
        <time>2014-01-19T10:56:42Z</time>
      </trkpt>
      <trkpt lat="49.64472" lon="3.09172">
        <ele>71.98</ele>
        <time>2014-01-19T10:56:47Z</time>
      </trkpt>
      <trkpt lat="49.64479" lon="3.09122">
        <ele>70.44</ele>
        <time>2014-01-19T10:56:52Z</time>
      </trkpt>
      <trkpt lat="49.64483" lon="3.09083">
        <ele>69.21</ele>
        <time>2014-01-19T10:56:56Z</time>
      </trkpt>
      <trkpt lat="49.64488" lon="3.09032">
        <ele>68.7</ele>
        <time>2014-01-19T10:57:01Z</time>
      </trkpt>
      <trkpt lat="49.64491" lon="3.08993">
        <ele>68.36</ele>
        <time>2014-01-19T10:57:05Z</time>
      </trkpt>
      <trkpt lat="49.64496" lon="3.08947">
        <ele>67.53</ele>
        <time>2014-01-19T10:57:10Z</time>
      </trkpt>
      <trkpt lat="49.645" lon="3.08899">
        <ele>67</ele>
        <time>2014-01-19T10:57:15Z</time>
      </trkpt>
      <trkpt lat="49.64504" lon="3.08861">
        <ele>67.03</ele>
        <time>2014-01-19T10:57:19Z</time>
      </trkpt>
      <trkpt lat="49.64507" lon="3.08815">
        <ele>67.27</ele>
        <time>2014-01-19T10:57:24Z</time>
      </trkpt>
      <trkpt lat="49.6451" lon="3.08765">
        <ele>67.74</ele>
        <time>2014-01-19T10:57:29Z</time>
      </trkpt>
      <trkpt lat="49.64513" lon="3.08726">
        <ele>68.06</ele>
        <time>2014-01-19T10:57:33Z</time>
      </trkpt>
      <trkpt lat="49.6452" lon="3.0868">
        <ele>68.19</ele>
        <time>2014-01-19T10:57:38Z</time>
      </trkpt>
      <trkpt lat="49.64533" lon="3.08634">
        <ele>67.88</ele>
        <time>2014-01-19T10:57:43Z</time>
      </trkpt>
      <trkpt lat="49.64547" lon="3.08598">
        <ele>67.23</ele>
        <time>2014-01-19T10:57:47Z</time>
      </trkpt>
      <trkpt lat="49.64563" lon="3.08565">
        <ele>66.67</ele>
        <time>2014-01-19T10:57:51Z</time>
      </trkpt>
      <trkpt lat="49.64584" lon="3.08527">
        <ele>66.37</ele>
        <time>2014-01-19T10:57:56Z</time>
      </trkpt>
      <trkpt lat="49.64602" lon="3.08495">
        <ele>67.21</ele>
        <time>2014-01-19T10:58:00Z</time>
      </trkpt>
      <trkpt lat="49.64621" lon="3.08451">
        <ele>67.19</ele>
        <time>2014-01-19T10:58:05Z</time>
      </trkpt>
      <trkpt lat="49.64634" lon="3.08414">
        <ele>66.95</ele>
        <time>2014-01-19T10:58:09Z</time>
      </trkpt>
      <trkpt lat="49.64649" lon="3.08368">
        <ele>66.08</ele>
        <time>2014-01-19T10:58:14Z</time>
      </trkpt>
      <trkpt lat="49.64663" lon="3.08334">
        <ele>65.1</ele>
        <time>2014-01-19T10:58:18Z</time>
      </trkpt>
      <trkpt lat="49.6468" lon="3.08289">
        <ele>65.29</ele>
        <time>2014-01-19T10:58:23Z</time>
      </trkpt>
      <trkpt lat="49.64692" lon="3.08252">
        <ele>65.03</ele>
        <time>2014-01-19T10:58:27Z</time>
      </trkpt>
      <trkpt lat="49.64705" lon="3.08213">
        <ele>65.03</ele>
        <time>2014-01-19T10:58:32Z</time>
      </trkpt>
      <trkpt lat="49.64716" lon="3.08183">
        <ele>64.85</ele>
        <time>2014-01-19T10:58:36Z</time>
      </trkpt>
      <trkpt lat="49.64729" lon="3.08143">
        <ele>64.86</ele>
        <time>2014-01-19T10:58:41Z</time>
      </trkpt>
      <trkpt lat="49.6474" lon="3.0811">
        <ele>65</ele>
        <time>2014-01-19T10:58:45Z</time>
      </trkpt>
      <trkpt lat="49.6476" lon="3.08077">
        <ele>65.15</ele>
        <time>2014-01-19T10:58:50Z</time>
      </trkpt>
      <trkpt lat="49.64784" lon="3.08053">
        <ele>65.57</ele>
        <time>2014-01-19T10:58:55Z</time>
      </trkpt>
      <trkpt lat="49.64804" lon="3.08039">
        <ele>65.72</ele>
        <time>2014-01-19T10:58:59Z</time>
      </trkpt>
      <trkpt lat="49.64823" lon="3.08025">
        <ele>65.79</ele>
        <time>2014-01-19T10:59:03Z</time>
      </trkpt>
      <trkpt lat="49.64844" lon="3.08007">
        <ele>65.65</ele>
        <time>2014-01-19T10:59:08Z</time>
      </trkpt>
      <trkpt lat="49.64864" lon="3.07989">
        <ele>65.48</ele>
        <time>2014-01-19T10:59:12Z</time>
      </trkpt>
      <trkpt lat="49.64891" lon="3.07958">
        <ele>65.28</ele>
        <time>2014-01-19T10:59:17Z</time>
      </trkpt>
      <trkpt lat="49.64913" lon="3.07927">
        <ele>65.01</ele>
        <time>2014-01-19T10:59:21Z</time>
      </trkpt>
      <trkpt lat="49.64939" lon="3.07885">
        <ele>64.49</ele>
        <time>2014-01-19T10:59:26Z</time>
      </trkpt>
      <trkpt lat="49.64956" lon="3.0785">
        <ele>64.01</ele>
        <time>2014-01-19T10:59:30Z</time>
      </trkpt>
      <trkpt lat="49.64976" lon="3.07808">
        <ele>63.01</ele>
        <time>2014-01-19T10:59:35Z</time>
      </trkpt>
      <trkpt lat="49.64994" lon="3.07766">
        <ele>61.6</ele>
        <time>2014-01-19T10:59:40Z</time>
      </trkpt>
      <trkpt lat="49.65013" lon="3.07728">
        <ele>61.19</ele>
        <time>2014-01-19T10:59:45Z</time>
      </trkpt>
      <trkpt lat="49.65032" lon="3.07688">
        <ele>61.17</ele>
        <time>2014-01-19T10:59:50Z</time>
      </trkpt>
      <trkpt lat="49.6505" lon="3.07651">
        <ele>60.94</ele>
        <time>2014-01-19T10:59:55Z</time>
      </trkpt>
      <trkpt lat="49.65066" lon="3.07622">
        <ele>60.64</ele>
        <time>2014-01-19T10:59:59Z</time>
      </trkpt>
      <trkpt lat="49.65085" lon="3.07589">
        <ele>59.98</ele>
        <time>2014-01-19T11:00:04Z</time>
      </trkpt>
      <trkpt lat="49.65098" lon="3.07566">
        <ele>59.82</ele>
        <time>2014-01-19T11:00:08Z</time>
      </trkpt>
      <trkpt lat="49.65113" lon="3.07496">
        <ele>59.68</ele>
        <time>2014-01-19T11:00:17Z</time>
      </trkpt>
      <trkpt lat="49.65118" lon="3.07446">
        <ele>59.96</ele>
        <time>2014-01-19T11:00:22Z</time>
      </trkpt>
      <trkpt lat="49.65119" lon="3.0741">
        <ele>60.22</ele>
        <time>2014-01-19T11:00:26Z</time>
      </trkpt>
      <trkpt lat="49.6512" lon="3.0738">
        <ele>60.57</ele>
        <time>2014-01-19T11:00:30Z</time>
      </trkpt>
      <trkpt lat="49.65119" lon="3.07347">
        <ele>60.98</ele>
        <time>2014-01-19T11:00:35Z</time>
      </trkpt>
      <trkpt lat="49.65115" lon="3.07278">
        <ele>60.82</ele>
        <time>2014-01-19T11:00:44Z</time>
      </trkpt>
      <trkpt lat="49.65115" lon="3.07235">
        <ele>60.58</ele>
        <time>2014-01-19T11:00:49Z</time>
      </trkpt>
      <trkpt lat="49.65119" lon="3.07206">
        <ele>60.5</ele>
        <time>2014-01-19T11:00:53Z</time>
      </trkpt>
      <trkpt lat="49.65122" lon="3.07178">
        <ele>60.47</ele>
        <time>2014-01-19T11:00:57Z</time>
      </trkpt>
      <trkpt lat="49.65125" lon="3.07143">
        <ele>60.49</ele>
        <time>2014-01-19T11:01:02Z</time>
      </trkpt>
      <trkpt lat="49.65145" lon="3.07087">
        <ele>60.74</ele>
        <time>2014-01-19T11:01:11Z</time>
      </trkpt>
      <trkpt lat="49.65156" lon="3.07062">
        <ele>60.8</ele>
        <time>2014-01-19T11:01:15Z</time>
      </trkpt>
      <trkpt lat="49.65169" lon="3.07028">
        <ele>61.16</ele>
        <time>2014-01-19T11:01:20Z</time>
      </trkpt>
      <trkpt lat="49.65189" lon="3.07022">
        <ele>62.33</ele>
        <time>2014-01-19T11:01:24Z</time>
      </trkpt>
      <trkpt lat="49.65213" lon="3.07026">
        <ele>63.79</ele>
        <time>2014-01-19T11:01:29Z</time>
      </trkpt>
      <trkpt lat="49.65233" lon="3.07027">
        <ele>64.96</ele>
        <time>2014-01-19T11:01:33Z</time>
      </trkpt>
      <trkpt lat="49.65255" lon="3.07029">
        <ele>66.25</ele>
        <time>2014-01-19T11:01:38Z</time>
      </trkpt>
      <trkpt lat="49.65275" lon="3.0703">
        <ele>67.29</ele>
        <time>2014-01-19T11:01:42Z</time>
      </trkpt>
      <trkpt lat="49.65297" lon="3.07032">
        <ele>68.48</ele>
        <time>2014-01-19T11:01:47Z</time>
      </trkpt>
      <trkpt lat="49.65337" lon="3.07037">
        <ele>70.69</ele>
        <time>2014-01-19T11:01:56Z</time>
      </trkpt>
      <trkpt lat="49.65358" lon="3.07037">
        <ele>71.95</ele>
        <time>2014-01-19T11:02:00Z</time>
      </trkpt>
      <trkpt lat="49.65382" lon="3.07036">
        <ele>73.41</ele>
        <time>2014-01-19T11:02:05Z</time>
      </trkpt>
      <trkpt lat="49.65412" lon="3.07039">
        <ele>75.27</ele>
        <time>2014-01-19T11:02:14Z</time>
      </trkpt>
      <trkpt lat="49.65435" lon="3.07036">
        <ele>76.58</ele>
        <time>2014-01-19T11:02:22Z</time>
      </trkpt>
      <trkpt lat="49.65465" lon="3.07033">
        <ele>78.3</ele>
        <time>2014-01-19T11:02:32Z</time>
      </trkpt>
      <trkpt lat="49.65495" lon="3.07032">
        <ele>79.94</ele>
        <time>2014-01-19T11:02:41Z</time>
      </trkpt>
      <trkpt lat="49.65528" lon="3.07037">
        <ele>81.57</ele>
        <time>2014-01-19T11:02:50Z</time>
      </trkpt>
      <trkpt lat="49.65556" lon="3.07044">
        <ele>82.99</ele>
        <time>2014-01-19T11:02:59Z</time>
      </trkpt>
      <trkpt lat="49.65588" lon="3.07042">
        <ele>84.65</ele>
        <time>2014-01-19T11:03:08Z</time>
      </trkpt>
      <trkpt lat="49.6562" lon="3.07038">
        <ele>85.87</ele>
        <time>2014-01-19T11:03:17Z</time>
      </trkpt>
      <trkpt lat="49.65656" lon="3.07034">
        <ele>87.22</ele>
        <time>2014-01-19T11:03:26Z</time>
      </trkpt>
      <trkpt lat="49.65678" lon="3.07031">
        <ele>87.76</ele>
        <time>2014-01-19T11:03:31Z</time>
      </trkpt>
      <trkpt lat="49.65696" lon="3.07029">
        <ele>88</ele>
        <time>2014-01-19T11:03:35Z</time>
      </trkpt>
      <trkpt lat="49.65719" lon="3.07026">
        <ele>88.31</ele>
        <time>2014-01-19T11:03:40Z</time>
      </trkpt>
      <trkpt lat="49.65763" lon="3.07028">
        <ele>88.77</ele>
        <time>2014-01-19T11:03:49Z</time>
      </trkpt>
      <trkpt lat="49.65791" lon="3.07037">
        <ele>88.83</ele>
        <time>2014-01-19T11:03:54Z</time>
      </trkpt>
      <trkpt lat="49.65819" lon="3.07048">
        <ele>88.77</ele>
        <time>2014-01-19T11:03:59Z</time>
      </trkpt>
      <trkpt lat="49.65842" lon="3.07057">
        <ele>88.9</ele>
        <time>2014-01-19T11:04:03Z</time>
      </trkpt>
      <trkpt lat="49.65873" lon="3.07069">
        <ele>89.68</ele>
        <time>2014-01-19T11:04:08Z</time>
      </trkpt>
      <trkpt lat="49.65898" lon="3.07079">
        <ele>90.4</ele>
        <time>2014-01-19T11:04:12Z</time>
      </trkpt>
      <trkpt lat="49.65931" lon="3.0709">
        <ele>91.26</ele>
        <time>2014-01-19T11:04:17Z</time>
      </trkpt>
      <trkpt lat="49.65955" lon="3.07098">
        <ele>91.75</ele>
        <time>2014-01-19T11:04:21Z</time>
      </trkpt>
      <trkpt lat="49.65981" lon="3.07108">
        <ele>92.25</ele>
        <time>2014-01-19T11:04:26Z</time>
      </trkpt>
      <trkpt lat="49.66001" lon="3.07118">
        <ele>92.56</ele>
        <time>2014-01-19T11:04:31Z</time>
      </trkpt>
      <trkpt lat="49.66025" lon="3.07131">
        <ele>92</ele>
        <time>2014-01-19T11:04:39Z</time>
      </trkpt>
      <trkpt lat="49.66056" lon="3.07144">
        <ele>91.42</ele>
        <time>2014-01-19T11:04:49Z</time>
      </trkpt>
      <trkpt lat="49.6609" lon="3.07158">
        <ele>91</ele>
        <time>2014-01-19T11:04:58Z</time>
      </trkpt>
      <trkpt lat="49.66123" lon="3.07172">
        <ele>91.03</ele>
        <time>2014-01-19T11:05:08Z</time>
      </trkpt>
      <trkpt lat="49.6614" lon="3.07178">
        <ele>91.04</ele>
        <time>2014-01-19T11:05:13Z</time>
      </trkpt>
      <trkpt lat="49.6617" lon="3.07186">
        <ele>90.91</ele>
        <time>2014-01-19T11:05:21Z</time>
      </trkpt>
      <trkpt lat="49.66214" lon="3.0719">
        <ele>89.62</ele>
        <time>2014-01-19T11:05:30Z</time>
      </trkpt>
      <trkpt lat="49.66237" lon="3.0719">
        <ele>88.95</ele>
        <time>2014-01-19T11:05:34Z</time>
      </trkpt>
      <trkpt lat="49.66264" lon="3.07188">
        <ele>88.31</ele>
        <time>2014-01-19T11:05:39Z</time>
      </trkpt>
      <trkpt lat="49.66291" lon="3.07188">
        <ele>87.88</ele>
        <time>2014-01-19T11:05:44Z</time>
      </trkpt>
      <trkpt lat="49.66321" lon="3.07186">
        <ele>87.42</ele>
        <time>2014-01-19T11:05:49Z</time>
      </trkpt>
      <trkpt lat="49.66346" lon="3.07184">
        <ele>87.03</ele>
        <time>2014-01-19T11:05:53Z</time>
      </trkpt>
      <trkpt lat="49.6637" lon="3.07182">
        <ele>86.67</ele>
        <time>2014-01-19T11:05:57Z</time>
      </trkpt>
      <trkpt lat="49.66399" lon="3.07183">
        <ele>86.26</ele>
        <time>2014-01-19T11:06:02Z</time>
      </trkpt>
      <trkpt lat="49.6643" lon="3.07185">
        <ele>85.76</ele>
        <time>2014-01-19T11:06:07Z</time>
      </trkpt>
      <trkpt lat="49.6646" lon="3.07185">
        <ele>85.19</ele>
        <time>2014-01-19T11:06:12Z</time>
      </trkpt>
      <trkpt lat="49.66484" lon="3.07187">
        <ele>84.78</ele>
        <time>2014-01-19T11:06:16Z</time>
      </trkpt>
      <trkpt lat="49.66516" lon="3.07189">
        <ele>84.49</ele>
        <time>2014-01-19T11:06:21Z</time>
      </trkpt>
      <trkpt lat="49.6655" lon="3.07193">
        <ele>84.44</ele>
        <time>2014-01-19T11:06:26Z</time>
      </trkpt>
      <trkpt lat="49.66585" lon="3.07198">
        <ele>84.32</ele>
        <time>2014-01-19T11:06:31Z</time>
      </trkpt>
      <trkpt lat="49.66613" lon="3.07205">
        <ele>83.36</ele>
        <time>2014-01-19T11:06:35Z</time>
      </trkpt>
      <trkpt lat="49.66648" lon="3.07215">
        <ele>82.36</ele>
        <time>2014-01-19T11:06:40Z</time>
      </trkpt>
      <trkpt lat="49.66687" lon="3.07215">
        <ele>80.77</ele>
        <time>2014-01-19T11:06:45Z</time>
      </trkpt>
      <trkpt lat="49.66724" lon="3.07203">
        <ele>78.56</ele>
        <time>2014-01-19T11:06:50Z</time>
      </trkpt>
      <trkpt lat="49.66762" lon="3.07184">
        <ele>76.33</ele>
        <time>2014-01-19T11:06:55Z</time>
      </trkpt>
      <trkpt lat="49.66795" lon="3.07163">
        <ele>74.92</ele>
        <time>2014-01-19T11:07:00Z</time>
      </trkpt>
      <trkpt lat="49.66824" lon="3.0716">
        <ele>74.29</ele>
        <time>2014-01-19T11:07:05Z</time>
      </trkpt>
      <trkpt lat="49.66847" lon="3.07188">
        <ele>74.67</ele>
        <time>2014-01-19T11:07:10Z</time>
      </trkpt>
      <trkpt lat="49.66864" lon="3.07219">
        <ele>75.42</ele>
        <time>2014-01-19T11:07:15Z</time>
      </trkpt>
      <trkpt lat="49.66882" lon="3.07225">
        <ele>75.28</ele>
        <time>2014-01-19T11:07:25Z</time>
      </trkpt>
      <trkpt lat="49.66901" lon="3.07212">
        <ele>74.76</ele>
        <time>2014-01-19T11:07:29Z</time>
      </trkpt>
      <trkpt lat="49.66928" lon="3.07191">
        <ele>73.53</ele>
        <time>2014-01-19T11:07:34Z</time>
      </trkpt>
      <trkpt lat="49.66958" lon="3.07182">
        <ele>71.36</ele>
        <time>2014-01-19T11:07:38Z</time>
      </trkpt>
      <trkpt lat="49.67" lon="3.07198">
        <ele>69.13</ele>
        <time>2014-01-19T11:07:43Z</time>
      </trkpt>
      <trkpt lat="49.67035" lon="3.07206">
        <ele>66.95</ele>
        <time>2014-01-19T11:07:47Z</time>
      </trkpt>
      <trkpt lat="49.67074" lon="3.07204">
        <ele>64.11</ele>
        <time>2014-01-19T11:07:51Z</time>
      </trkpt>
      <trkpt lat="49.67118" lon="3.07187">
        <ele>63.04</ele>
        <time>2014-01-19T11:07:56Z</time>
      </trkpt>
      <trkpt lat="49.67152" lon="3.07161">
        <ele>63.05</ele>
        <time>2014-01-19T11:08:01Z</time>
      </trkpt>
      <trkpt lat="49.6717" lon="3.07144">
        <ele>63.47</ele>
        <time>2014-01-19T11:08:05Z</time>
      </trkpt>
      <trkpt lat="49.67193" lon="3.07113">
        <ele>65.61</ele>
        <time>2014-01-19T11:08:14Z</time>
      </trkpt>
      <trkpt lat="49.67187" lon="3.07061">
        <ele>65.57</ele>
        <time>2014-01-19T11:08:19Z</time>
      </trkpt>
      <trkpt lat="49.67181" lon="3.07022">
        <ele>64.76</ele>
        <time>2014-01-19T11:08:23Z</time>
      </trkpt>
      <trkpt lat="49.67176" lon="3.06985">
        <ele>64.17</ele>
        <time>2014-01-19T11:08:27Z</time>
      </trkpt>
      <trkpt lat="49.67167" lon="3.06938">
        <ele>63.81</ele>
        <time>2014-01-19T11:08:32Z</time>
      </trkpt>
      <trkpt lat="49.67159" lon="3.06897">
        <ele>64.36</ele>
        <time>2014-01-19T11:08:37Z</time>
      </trkpt>
      <trkpt lat="49.67154" lon="3.06864">
        <ele>65.06</ele>
        <time>2014-01-19T11:08:41Z</time>
      </trkpt>
      <trkpt lat="49.67149" lon="3.06828">
        <ele>65.74</ele>
        <time>2014-01-19T11:08:46Z</time>
      </trkpt>
      <trkpt lat="49.67143" lon="3.06792">
        <ele>66.36</ele>
        <time>2014-01-19T11:08:50Z</time>
      </trkpt>
      <trkpt lat="49.67135" lon="3.06751">
        <ele>66.95</ele>
        <time>2014-01-19T11:08:55Z</time>
      </trkpt>
      <trkpt lat="49.67129" lon="3.0672">
        <ele>66.18</ele>
        <time>2014-01-19T11:08:59Z</time>
      </trkpt>
      <trkpt lat="49.67118" lon="3.06671">
        <ele>65.07</ele>
        <time>2014-01-19T11:09:04Z</time>
      </trkpt>
      <trkpt lat="49.67117" lon="3.06635">
        <ele>65.09</ele>
        <time>2014-01-19T11:09:08Z</time>
      </trkpt>
      <trkpt lat="49.67111" lon="3.06578">
        <ele>64.98</ele>
        <time>2014-01-19T11:09:17Z</time>
      </trkpt>
      <trkpt lat="49.67102" lon="3.06554">
        <ele>64.7</ele>
        <time>2014-01-19T11:09:21Z</time>
      </trkpt>
      <trkpt lat="49.67087" lon="3.06526">
        <ele>64.7</ele>
        <time>2014-01-19T11:09:26Z</time>
      </trkpt>
      <trkpt lat="49.67078" lon="3.06501">
        <ele>64.72</ele>
        <time>2014-01-19T11:09:30Z</time>
      </trkpt>
      <trkpt lat="49.67096" lon="3.06485">
        <ele>64.33</ele>
        <time>2014-01-19T11:09:39Z</time>
      </trkpt>
      <trkpt lat="49.6713" lon="3.0649">
        <ele>64.16</ele>
        <time>2014-01-19T11:10:08Z</time>
      </trkpt>
      <trkpt lat="49.6715" lon="3.06494">
        <ele>64.05</ele>
        <time>2014-01-19T11:10:13Z</time>
      </trkpt>
      <trkpt lat="49.67183" lon="3.06502">
        <ele>64.07</ele>
        <time>2014-01-19T11:10:21Z</time>
      </trkpt>
      <trkpt lat="49.67206" lon="3.06509">
        <ele>64.43</ele>
        <time>2014-01-19T11:10:26Z</time>
      </trkpt>
      <trkpt lat="49.67244" lon="3.0653">
        <ele>65.74</ele>
        <time>2014-01-19T11:10:34Z</time>
      </trkpt>
      <trkpt lat="49.67271" lon="3.06542">
        <ele>66.13</ele>
        <time>2014-01-19T11:10:39Z</time>
      </trkpt>
      <trkpt lat="49.67294" lon="3.06551">
        <ele>65.98</ele>
        <time>2014-01-19T11:10:44Z</time>
      </trkpt>
      <trkpt lat="49.67315" lon="3.06562">
        <ele>65.6</ele>
        <time>2014-01-19T11:10:49Z</time>
      </trkpt>
      <trkpt lat="49.67344" lon="3.06583">
        <ele>65.13</ele>
        <time>2014-01-19T11:10:57Z</time>
      </trkpt>
      <trkpt lat="49.67364" lon="3.06595">
        <ele>66.51</ele>
        <time>2014-01-19T11:11:02Z</time>
      </trkpt>
      <trkpt lat="49.67386" lon="3.06611">
        <ele>67.52</ele>
        <time>2014-01-19T11:11:07Z</time>
      </trkpt>
      <trkpt lat="49.67409" lon="3.06626">
        <ele>67.4</ele>
        <time>2014-01-19T11:11:12Z</time>
      </trkpt>
      <trkpt lat="49.67443" lon="3.06655">
        <ele>66.96</ele>
        <time>2014-01-19T11:11:21Z</time>
      </trkpt>
      <trkpt lat="49.67463" lon="3.06669">
        <ele>66.55</ele>
        <time>2014-01-19T11:11:26Z</time>
      </trkpt>
      <trkpt lat="49.67485" lon="3.06684">
        <ele>67.15</ele>
        <time>2014-01-19T11:11:31Z</time>
      </trkpt>
      <trkpt lat="49.67503" lon="3.06698">
        <ele>67.89</ele>
        <time>2014-01-19T11:11:35Z</time>
      </trkpt>
      <trkpt lat="49.6752" lon="3.0671">
        <ele>68.42</ele>
        <time>2014-01-19T11:11:39Z</time>
      </trkpt>
      <trkpt lat="49.67551" lon="3.06734">
        <ele>68.54</ele>
        <time>2014-01-19T11:11:49Z</time>
      </trkpt>
      <trkpt lat="49.67576" lon="3.06757">
        <ele>67.92</ele>
        <time>2014-01-19T11:11:57Z</time>
      </trkpt>
      <trkpt lat="49.67593" lon="3.06769">
        <ele>67.8</ele>
        <time>2014-01-19T11:12:02Z</time>
      </trkpt>
      <trkpt lat="49.67609" lon="3.06781">
        <ele>67.91</ele>
        <time>2014-01-19T11:12:06Z</time>
      </trkpt>
      <trkpt lat="49.67632" lon="3.068">
        <ele>67.65</ele>
        <time>2014-01-19T11:12:11Z</time>
      </trkpt>
      <trkpt lat="49.67648" lon="3.06824">
        <ele>67.11</ele>
        <time>2014-01-19T11:12:16Z</time>
      </trkpt>
      <trkpt lat="49.67665" lon="3.06851">
        <ele>67.37</ele>
        <time>2014-01-19T11:12:21Z</time>
      </trkpt>
      <trkpt lat="49.67678" lon="3.06878">
        <ele>69.31</ele>
        <time>2014-01-19T11:12:26Z</time>
      </trkpt>
      <trkpt lat="49.67696" lon="3.06896">
        <ele>70.52</ele>
        <time>2014-01-19T11:12:31Z</time>
      </trkpt>
      <trkpt lat="49.67714" lon="3.06873">
        <ele>69.47</ele>
        <time>2014-01-19T11:12:39Z</time>
      </trkpt>
      <trkpt lat="49.6775" lon="3.06888">
        <ele>70.31</ele>
        <time>2014-01-19T11:12:49Z</time>
      </trkpt>
      <trkpt lat="49.67766" lon="3.06904">
        <ele>71.12</ele>
        <time>2014-01-19T11:12:54Z</time>
      </trkpt>
      <trkpt lat="49.67798" lon="3.0693">
        <ele>72.22</ele>
        <time>2014-01-19T11:13:03Z</time>
      </trkpt>
      <trkpt lat="49.6782" lon="3.06951">
        <ele>72.74</ele>
        <time>2014-01-19T11:13:08Z</time>
      </trkpt>
      <trkpt lat="49.67838" lon="3.06971">
        <ele>73.19</ele>
        <time>2014-01-19T11:13:13Z</time>
      </trkpt>
      <trkpt lat="49.67871" lon="3.07001">
        <ele>74.34</ele>
        <time>2014-01-19T11:13:22Z</time>
      </trkpt>
      <trkpt lat="49.67888" lon="3.07025">
        <ele>74.27</ele>
        <time>2014-01-19T11:13:27Z</time>
      </trkpt>
      <trkpt lat="49.67905" lon="3.0704">
        <ele>74.29</ele>
        <time>2014-01-19T11:13:32Z</time>
      </trkpt>
      <trkpt lat="49.67933" lon="3.0705">
        <ele>74.84</ele>
        <time>2014-01-19T11:13:41Z</time>
      </trkpt>
      <trkpt lat="49.67973" lon="3.07042">
        <ele>76.51</ele>
        <time>2014-01-19T11:13:50Z</time>
      </trkpt>
      <trkpt lat="49.67994" lon="3.07039">
        <ele>77.32</ele>
        <time>2014-01-19T11:13:55Z</time>
      </trkpt>
      <trkpt lat="49.68024" lon="3.07029">
        <ele>78.4</ele>
        <time>2014-01-19T11:14:04Z</time>
      </trkpt>
      <trkpt lat="49.68051" lon="3.0702">
        <ele>79.43</ele>
        <time>2014-01-19T11:14:13Z</time>
      </trkpt>
      <trkpt lat="49.68078" lon="3.07012">
        <ele>80.55</ele>
        <time>2014-01-19T11:14:21Z</time>
      </trkpt>
      <trkpt lat="49.68097" lon="3.07006">
        <ele>80.71</ele>
        <time>2014-01-19T11:14:26Z</time>
      </trkpt>
      <trkpt lat="49.68134" lon="3.07004">
        <ele>80.36</ele>
        <time>2014-01-19T11:14:35Z</time>
      </trkpt>
      <trkpt lat="49.68152" lon="3.07017">
        <ele>80.1</ele>
        <time>2014-01-19T11:14:39Z</time>
      </trkpt>
      <trkpt lat="49.68171" lon="3.07041">
        <ele>80.07</ele>
        <time>2014-01-19T11:14:44Z</time>
      </trkpt>
      <trkpt lat="49.68182" lon="3.07063">
        <ele>80.23</ele>
        <time>2014-01-19T11:14:48Z</time>
      </trkpt>
      <trkpt lat="49.68198" lon="3.07081">
        <ele>80.38</ele>
        <time>2014-01-19T11:14:53Z</time>
      </trkpt>
      <trkpt lat="49.6823" lon="3.07061">
        <ele>80.97</ele>
        <time>2014-01-19T11:15:02Z</time>
      </trkpt>
      <trkpt lat="49.68248" lon="3.07047">
        <ele>81.4</ele>
        <time>2014-01-19T11:15:06Z</time>
      </trkpt>
      <trkpt lat="49.68268" lon="3.07037">
        <ele>81.76</ele>
        <time>2014-01-19T11:15:10Z</time>
      </trkpt>
      <trkpt lat="49.68294" lon="3.07038">
        <ele>82.07</ele>
        <time>2014-01-19T11:15:15Z</time>
      </trkpt>
      <trkpt lat="49.68321" lon="3.07046">
        <ele>82.3</ele>
        <time>2014-01-19T11:15:20Z</time>
      </trkpt>
      <trkpt lat="49.68344" lon="3.07055">
        <ele>82.73</ele>
        <time>2014-01-19T11:15:25Z</time>
      </trkpt>
      <trkpt lat="49.68363" lon="3.07063">
        <ele>83.3</ele>
        <time>2014-01-19T11:15:29Z</time>
      </trkpt>
      <trkpt lat="49.6838" lon="3.07071">
        <ele>83.83</ele>
        <time>2014-01-19T11:15:33Z</time>
      </trkpt>
      <trkpt lat="49.68404" lon="3.07082">
        <ele>84.56</ele>
        <time>2014-01-19T11:15:38Z</time>
      </trkpt>
      <trkpt lat="49.68427" lon="3.07092">
        <ele>85.25</ele>
        <time>2014-01-19T11:15:43Z</time>
      </trkpt>
      <trkpt lat="49.68447" lon="3.071">
        <ele>85.75</ele>
        <time>2014-01-19T11:15:47Z</time>
      </trkpt>
      <trkpt lat="49.68467" lon="3.07109">
        <ele>86.14</ele>
        <time>2014-01-19T11:15:51Z</time>
      </trkpt>
      <trkpt lat="49.68493" lon="3.07121">
        <ele>86.47</ele>
        <time>2014-01-19T11:15:56Z</time>
      </trkpt>
      <trkpt lat="49.68508" lon="3.07152">
        <ele>85.79</ele>
        <time>2014-01-19T11:16:01Z</time>
      </trkpt>
      <trkpt lat="49.68511" lon="3.07187">
        <ele>85.11</ele>
        <time>2014-01-19T11:16:05Z</time>
      </trkpt>
      <trkpt lat="49.68512" lon="3.07221">
        <ele>84.67</ele>
        <time>2014-01-19T11:16:09Z</time>
      </trkpt>
      <trkpt lat="49.68515" lon="3.07263">
        <ele>84.21</ele>
        <time>2014-01-19T11:16:14Z</time>
      </trkpt>
      <trkpt lat="49.68518" lon="3.07296">
        <ele>83.86</ele>
        <time>2014-01-19T11:16:18Z</time>
      </trkpt>
      <trkpt lat="49.68521" lon="3.07338">
        <ele>83.48</ele>
        <time>2014-01-19T11:16:23Z</time>
      </trkpt>
      <trkpt lat="49.68532" lon="3.07363">
        <ele>83.63</ele>
        <time>2014-01-19T11:16:27Z</time>
      </trkpt>
      <trkpt lat="49.68559" lon="3.07363">
        <ele>84.17</ele>
        <time>2014-01-19T11:16:32Z</time>
      </trkpt>
      <trkpt lat="49.68589" lon="3.07355">
        <ele>84.87</ele>
        <time>2014-01-19T11:16:37Z</time>
      </trkpt>
      <trkpt lat="49.68613" lon="3.07348">
        <ele>85.53</ele>
        <time>2014-01-19T11:16:41Z</time>
      </trkpt>
      <trkpt lat="49.68637" lon="3.0734">
        <ele>86.22</ele>
        <time>2014-01-19T11:16:45Z</time>
      </trkpt>
      <trkpt lat="49.68668" lon="3.0733">
        <ele>87.08</ele>
        <time>2014-01-19T11:16:50Z</time>
      </trkpt>
      <trkpt lat="49.68697" lon="3.07321">
        <ele>87.36</ele>
        <time>2014-01-19T11:16:55Z</time>
      </trkpt>
      <trkpt lat="49.68719" lon="3.07313">
        <ele>87.64</ele>
        <time>2014-01-19T11:16:59Z</time>
      </trkpt>
      <trkpt lat="49.6874" lon="3.0731">
        <ele>87.81</ele>
        <time>2014-01-19T11:17:03Z</time>
      </trkpt>
      <trkpt lat="49.68766" lon="3.07319">
        <ele>87.84</ele>
        <time>2014-01-19T11:17:08Z</time>
      </trkpt>
      <trkpt lat="49.68788" lon="3.07348">
        <ele>87.9</ele>
        <time>2014-01-19T11:17:13Z</time>
      </trkpt>
      <trkpt lat="49.68804" lon="3.07373">
        <ele>88.3</ele>
        <time>2014-01-19T11:17:17Z</time>
      </trkpt>
      <trkpt lat="49.68824" lon="3.07388">
        <ele>88.78</ele>
        <time>2014-01-19T11:17:21Z</time>
      </trkpt>
      <trkpt lat="49.68853" lon="3.07402">
        <ele>89</ele>
        <time>2014-01-19T11:17:26Z</time>
      </trkpt>
      <trkpt lat="49.68881" lon="3.07416">
        <ele>89</ele>
        <time>2014-01-19T11:17:31Z</time>
      </trkpt>
      <trkpt lat="49.68904" lon="3.07427">
        <ele>88.88</ele>
        <time>2014-01-19T11:17:35Z</time>
      </trkpt>
      <trkpt lat="49.68927" lon="3.07438">
        <ele>88.78</ele>
        <time>2014-01-19T11:17:39Z</time>
      </trkpt>
      <trkpt lat="49.68956" lon="3.07451">
        <ele>88.78</ele>
        <time>2014-01-19T11:17:44Z</time>
      </trkpt>
      <trkpt lat="49.68986" lon="3.07465">
        <ele>88.9</ele>
        <time>2014-01-19T11:17:49Z</time>
      </trkpt>
      <trkpt lat="49.69009" lon="3.07472">
        <ele>89.04</ele>
        <time>2014-01-19T11:17:53Z</time>
      </trkpt>
      <trkpt lat="49.69033" lon="3.07472">
        <ele>89.13</ele>
        <time>2014-01-19T11:17:57Z</time>
      </trkpt>
      <trkpt lat="49.69063" lon="3.07467">
        <ele>89.3</ele>
        <time>2014-01-19T11:18:02Z</time>
      </trkpt>
      <trkpt lat="49.69082" lon="3.07452">
        <ele>89.57</ele>
        <time>2014-01-19T11:18:06Z</time>
      </trkpt>
      <trkpt lat="49.69086" lon="3.07414">
        <ele>89.9</ele>
        <time>2014-01-19T11:18:11Z</time>
      </trkpt>
      <trkpt lat="49.69084" lon="3.0738">
        <ele>89.56</ele>
        <time>2014-01-19T11:18:15Z</time>
      </trkpt>
      <trkpt lat="49.6908" lon="3.07334">
        <ele>89.01</ele>
        <time>2014-01-19T11:18:20Z</time>
      </trkpt>
      <trkpt lat="49.69083" lon="3.07298">
        <ele>89</ele>
        <time>2014-01-19T11:18:24Z</time>
      </trkpt>
      <trkpt lat="49.69114" lon="3.07282">
        <ele>88.41</ele>
        <time>2014-01-19T11:18:29Z</time>
      </trkpt>
      <trkpt lat="49.69143" lon="3.07277">
        <ele>87.8</ele>
        <time>2014-01-19T11:18:33Z</time>
      </trkpt>
      <trkpt lat="49.69177" lon="3.07266">
        <ele>87.17</ele>
        <time>2014-01-19T11:18:38Z</time>
      </trkpt>
      <trkpt lat="49.69185" lon="3.07219">
        <ele>86.63</ele>
        <time>2014-01-19T11:18:43Z</time>
      </trkpt>
      <trkpt lat="49.69187" lon="3.07178">
        <ele>86.13</ele>
        <time>2014-01-19T11:18:47Z</time>
      </trkpt>
      <trkpt lat="49.69204" lon="3.07146">
        <ele>86.14</ele>
        <time>2014-01-19T11:18:51Z</time>
      </trkpt>
      <trkpt lat="49.69234" lon="3.07122">
        <ele>86.11</ele>
        <time>2014-01-19T11:18:56Z</time>
      </trkpt>
      <trkpt lat="49.6926" lon="3.07098">
        <ele>86.02</ele>
        <time>2014-01-19T11:19:01Z</time>
      </trkpt>
      <trkpt lat="49.69281" lon="3.07081">
        <ele>85.99</ele>
        <time>2014-01-19T11:19:05Z</time>
      </trkpt>
      <trkpt lat="49.69304" lon="3.07064">
        <ele>85.85</ele>
        <time>2014-01-19T11:19:09Z</time>
      </trkpt>
      <trkpt lat="49.69336" lon="3.07046">
        <ele>85.55</ele>
        <time>2014-01-19T11:19:14Z</time>
      </trkpt>
      <trkpt lat="49.69362" lon="3.07034">
        <ele>85.34</ele>
        <time>2014-01-19T11:19:18Z</time>
      </trkpt>
      <trkpt lat="49.69393" lon="3.07008">
        <ele>84.51</ele>
        <time>2014-01-19T11:19:23Z</time>
      </trkpt>
      <trkpt lat="49.69409" lon="3.06972">
        <ele>83.75</ele>
        <time>2014-01-19T11:19:27Z</time>
      </trkpt>
      <trkpt lat="49.69432" lon="3.06928">
        <ele>82.96</ele>
        <time>2014-01-19T11:19:32Z</time>
      </trkpt>
      <trkpt lat="49.69456" lon="3.0689">
        <ele>82.55</ele>
        <time>2014-01-19T11:19:37Z</time>
      </trkpt>
      <trkpt lat="49.69475" lon="3.06862">
        <ele>82.03</ele>
        <time>2014-01-19T11:19:41Z</time>
      </trkpt>
      <trkpt lat="49.69495" lon="3.06836">
        <ele>81.19</ele>
        <time>2014-01-19T11:19:45Z</time>
      </trkpt>
      <trkpt lat="49.69523" lon="3.06806">
        <ele>80.3</ele>
        <time>2014-01-19T11:19:50Z</time>
      </trkpt>
      <trkpt lat="49.69551" lon="3.06774">
        <ele>79.25</ele>
        <time>2014-01-19T11:19:55Z</time>
      </trkpt>
      <trkpt lat="49.69569" lon="3.06744">
        <ele>78.21</ele>
        <time>2014-01-19T11:19:59Z</time>
      </trkpt>
      <trkpt lat="49.69588" lon="3.06711">
        <ele>76.93</ele>
        <time>2014-01-19T11:20:03Z</time>
      </trkpt>
      <trkpt lat="49.69622" lon="3.06701">
        <ele>75.63</ele>
        <time>2014-01-19T11:20:08Z</time>
      </trkpt>
      <trkpt lat="49.69659" lon="3.06718">
        <ele>75.06</ele>
        <time>2014-01-19T11:20:13Z</time>
      </trkpt>
      <trkpt lat="49.69691" lon="3.0673">
        <ele>74.98</ele>
        <time>2014-01-19T11:20:17Z</time>
      </trkpt>
      <trkpt lat="49.69721" lon="3.06731">
        <ele>74.67</ele>
        <time>2014-01-19T11:20:21Z</time>
      </trkpt>
      <trkpt lat="49.6976" lon="3.06723">
        <ele>74.11</ele>
        <time>2014-01-19T11:20:26Z</time>
      </trkpt>
      <trkpt lat="49.69799" lon="3.06704">
        <ele>73.99</ele>
        <time>2014-01-19T11:20:31Z</time>
      </trkpt>
      <trkpt lat="49.69828" lon="3.06687">
        <ele>74.15</ele>
        <time>2014-01-19T11:20:35Z</time>
      </trkpt>
      <trkpt lat="49.69857" lon="3.06669">
        <ele>74.01</ele>
        <time>2014-01-19T11:20:39Z</time>
      </trkpt>
      <trkpt lat="49.69891" lon="3.0664">
        <ele>73.03</ele>
        <time>2014-01-19T11:20:44Z</time>
      </trkpt>
      <trkpt lat="49.69922" lon="3.06609">
        <ele>71.85</ele>
        <time>2014-01-19T11:20:49Z</time>
      </trkpt>
      <trkpt lat="49.69951" lon="3.06587">
        <ele>70.72</ele>
        <time>2014-01-19T11:20:53Z</time>
      </trkpt>
      <trkpt lat="49.69979" lon="3.06566">
        <ele>69.82</ele>
        <time>2014-01-19T11:20:57Z</time>
      </trkpt>
      <trkpt lat="49.70015" lon="3.06539">
        <ele>68.93</ele>
        <time>2014-01-19T11:21:02Z</time>
      </trkpt>
      <trkpt lat="49.70049" lon="3.06512">
        <ele>68.28</ele>
        <time>2014-01-19T11:21:07Z</time>
      </trkpt>
      <trkpt lat="49.70076" lon="3.06488">
        <ele>67.71</ele>
        <time>2014-01-19T11:21:11Z</time>
      </trkpt>
      <trkpt lat="49.70102" lon="3.06465">
        <ele>67.02</ele>
        <time>2014-01-19T11:21:15Z</time>
      </trkpt>
      <trkpt lat="49.70134" lon="3.06436">
        <ele>66.33</ele>
        <time>2014-01-19T11:21:20Z</time>
      </trkpt>
      <trkpt lat="49.70165" lon="3.06407">
        <ele>66</ele>
        <time>2014-01-19T11:21:25Z</time>
      </trkpt>
      <trkpt lat="49.70187" lon="3.06385">
        <ele>65.85</ele>
        <time>2014-01-19T11:21:29Z</time>
      </trkpt>
      <trkpt lat="49.70206" lon="3.06358">
        <ele>65.86</ele>
        <time>2014-01-19T11:21:33Z</time>
      </trkpt>
      <trkpt lat="49.70225" lon="3.06327">
        <ele>66.08</ele>
        <time>2014-01-19T11:21:38Z</time>
      </trkpt>
      <trkpt lat="49.70239" lon="3.06303">
        <ele>66.36</ele>
        <time>2014-01-19T11:21:43Z</time>
      </trkpt>
      <trkpt lat="49.70266" lon="3.06297">
        <ele>66.55</ele>
        <time>2014-01-19T11:21:51Z</time>
      </trkpt>
      <trkpt lat="49.70288" lon="3.063">
        <ele>66.67</ele>
        <time>2014-01-19T11:21:56Z</time>
      </trkpt>
      <trkpt lat="49.70312" lon="3.06305">
        <ele>66.83</ele>
        <time>2014-01-19T11:22:01Z</time>
      </trkpt>
      <trkpt lat="49.70329" lon="3.06312">
        <ele>66.96</ele>
        <time>2014-01-19T11:22:05Z</time>
      </trkpt>
      <trkpt lat="49.70355" lon="3.06319">
        <ele>67.22</ele>
        <time>2014-01-19T11:22:10Z</time>
      </trkpt>
      <trkpt lat="49.70381" lon="3.06325">
        <ele>67.52</ele>
        <time>2014-01-19T11:22:15Z</time>
      </trkpt>
      <trkpt lat="49.70407" lon="3.06329">
        <ele>67.84</ele>
        <time>2014-01-19T11:22:20Z</time>
      </trkpt>
      <trkpt lat="49.70427" lon="3.06338">
        <ele>67.88</ele>
        <time>2014-01-19T11:22:24Z</time>
      </trkpt>
      <trkpt lat="49.70456" lon="3.06345">
        <ele>67.59</ele>
        <time>2014-01-19T11:22:29Z</time>
      </trkpt>
      <trkpt lat="49.70487" lon="3.06349">
        <ele>67.32</ele>
        <time>2014-01-19T11:22:34Z</time>
      </trkpt>
      <trkpt lat="49.70519" lon="3.0636">
        <ele>67.09</ele>
        <time>2014-01-19T11:22:39Z</time>
      </trkpt>
      <trkpt lat="49.7055" lon="3.06367">
        <ele>66.81</ele>
        <time>2014-01-19T11:22:44Z</time>
      </trkpt>
      <trkpt lat="49.70572" lon="3.06371">
        <ele>66.58</ele>
        <time>2014-01-19T11:22:48Z</time>
      </trkpt>
      <trkpt lat="49.70603" lon="3.06378">
        <ele>66.41</ele>
        <time>2014-01-19T11:22:53Z</time>
      </trkpt>
      <trkpt lat="49.70627" lon="3.06382">
        <ele>66.28</ele>
        <time>2014-01-19T11:22:57Z</time>
      </trkpt>
      <trkpt lat="49.70657" lon="3.06386">
        <ele>66.08</ele>
        <time>2014-01-19T11:23:02Z</time>
      </trkpt>
      <trkpt lat="49.70691" lon="3.06396">
        <ele>66</ele>
        <time>2014-01-19T11:23:07Z</time>
      </trkpt>
      <trkpt lat="49.70728" lon="3.06409">
        <ele>66</ele>
        <time>2014-01-19T11:23:12Z</time>
      </trkpt>
      <trkpt lat="49.7076" lon="3.06417">
        <ele>66</ele>
        <time>2014-01-19T11:23:17Z</time>
      </trkpt>
      <trkpt lat="49.70783" lon="3.06425">
        <ele>66</ele>
        <time>2014-01-19T11:23:21Z</time>
      </trkpt>
      <trkpt lat="49.70812" lon="3.06436">
        <ele>66</ele>
        <time>2014-01-19T11:23:26Z</time>
      </trkpt>
      <trkpt lat="49.70842" lon="3.06448">
        <ele>65.87</ele>
        <time>2014-01-19T11:23:31Z</time>
      </trkpt>
      <trkpt lat="49.70867" lon="3.06453">
        <ele>65.54</ele>
        <time>2014-01-19T11:23:35Z</time>
      </trkpt>
      <trkpt lat="49.7089" lon="3.0646">
        <ele>65.35</ele>
        <time>2014-01-19T11:23:39Z</time>
      </trkpt>
      <trkpt lat="49.70919" lon="3.06465">
        <ele>65.18</ele>
        <time>2014-01-19T11:23:44Z</time>
      </trkpt>
      <trkpt lat="49.70945" lon="3.06467">
        <ele>65.48</ele>
        <time>2014-01-19T11:23:48Z</time>
      </trkpt>
      <trkpt lat="49.70974" lon="3.06471">
        <ele>65.78</ele>
        <time>2014-01-19T11:23:53Z</time>
      </trkpt>
      <trkpt lat="49.71003" lon="3.06486">
        <ele>65.92</ele>
        <time>2014-01-19T11:23:58Z</time>
      </trkpt>
      <trkpt lat="49.71031" lon="3.06502">
        <ele>65.22</ele>
        <time>2014-01-19T11:24:03Z</time>
      </trkpt>
      <trkpt lat="49.71068" lon="3.06502">
        <ele>64.34</ele>
        <time>2014-01-19T11:24:08Z</time>
      </trkpt>
      <trkpt lat="49.71096" lon="3.06501">
        <ele>63.84</ele>
        <time>2014-01-19T11:24:12Z</time>
      </trkpt>
      <trkpt lat="49.71131" lon="3.06498">
        <ele>63.43</ele>
        <time>2014-01-19T11:24:17Z</time>
      </trkpt>
      <trkpt lat="49.71164" lon="3.06498">
        <ele>63.03</ele>
        <time>2014-01-19T11:24:22Z</time>
      </trkpt>
      <trkpt lat="49.71191" lon="3.06502">
        <ele>62.72</ele>
        <time>2014-01-19T11:24:26Z</time>
      </trkpt>
      <trkpt lat="49.71229" lon="3.06506">
        <ele>62.31</ele>
        <time>2014-01-19T11:24:31Z</time>
      </trkpt>
      <trkpt lat="49.71262" lon="3.06512">
        <ele>62.18</ele>
        <time>2014-01-19T11:24:35Z</time>
      </trkpt>
      <trkpt lat="49.71296" lon="3.06517">
        <ele>62.42</ele>
        <time>2014-01-19T11:24:39Z</time>
      </trkpt>
      <trkpt lat="49.71337" lon="3.06526">
        <ele>62.96</ele>
        <time>2014-01-19T11:24:44Z</time>
      </trkpt>
      <trkpt lat="49.71383" lon="3.06534">
        <ele>63.56</ele>
        <time>2014-01-19T11:24:49Z</time>
      </trkpt>
      <trkpt lat="49.71423" lon="3.06536">
        <ele>63.83</ele>
        <time>2014-01-19T11:24:53Z</time>
      </trkpt>
      <trkpt lat="49.71464" lon="3.06539">
        <ele>63.67</ele>
        <time>2014-01-19T11:24:57Z</time>
      </trkpt>
      <trkpt lat="49.71516" lon="3.06546">
        <ele>63.55</ele>
        <time>2014-01-19T11:25:02Z</time>
      </trkpt>
      <trkpt lat="49.71567" lon="3.06553">
        <ele>63.64</ele>
        <time>2014-01-19T11:25:07Z</time>
      </trkpt>
      <trkpt lat="49.71607" lon="3.06558">
        <ele>63.8</ele>
        <time>2014-01-19T11:25:11Z</time>
      </trkpt>
      <trkpt lat="49.71647" lon="3.06562">
        <ele>64.12</ele>
        <time>2014-01-19T11:25:15Z</time>
      </trkpt>
      <trkpt lat="49.71696" lon="3.06569">
        <ele>64.49</ele>
        <time>2014-01-19T11:25:20Z</time>
      </trkpt>
      <trkpt lat="49.71734" lon="3.06574">
        <ele>64.68</ele>
        <time>2014-01-19T11:25:24Z</time>
      </trkpt>
      <trkpt lat="49.71781" lon="3.0658">
        <ele>65.22</ele>
        <time>2014-01-19T11:25:29Z</time>
      </trkpt>
      <trkpt lat="49.71818" lon="3.06584">
        <ele>65.81</ele>
        <time>2014-01-19T11:25:33Z</time>
      </trkpt>
      <trkpt lat="49.71864" lon="3.06591">
        <ele>65.91</ele>
        <time>2014-01-19T11:25:38Z</time>
      </trkpt>
      <trkpt lat="49.719" lon="3.06596">
        <ele>65.85</ele>
        <time>2014-01-19T11:25:42Z</time>
      </trkpt>
      <trkpt lat="49.71944" lon="3.06602">
        <ele>65.45</ele>
        <time>2014-01-19T11:25:47Z</time>
      </trkpt>
      <trkpt lat="49.71979" lon="3.06607">
        <ele>64.98</ele>
        <time>2014-01-19T11:25:51Z</time>
      </trkpt>
      <trkpt lat="49.72022" lon="3.06613">
        <ele>64.48</ele>
        <time>2014-01-19T11:25:56Z</time>
      </trkpt>
      <trkpt lat="49.72063" lon="3.0662">
        <ele>64.13</ele>
        <time>2014-01-19T11:26:01Z</time>
      </trkpt>
      <trkpt lat="49.72097" lon="3.06625">
        <ele>63.84</ele>
        <time>2014-01-19T11:26:05Z</time>
      </trkpt>
      <trkpt lat="49.7213" lon="3.0663">
        <ele>63.44</ele>
        <time>2014-01-19T11:26:09Z</time>
      </trkpt>
      <trkpt lat="49.72171" lon="3.06635">
        <ele>63.04</ele>
        <time>2014-01-19T11:26:14Z</time>
      </trkpt>
      <trkpt lat="49.72208" lon="3.06641">
        <ele>63.53</ele>
        <time>2014-01-19T11:26:19Z</time>
      </trkpt>
      <trkpt lat="49.72244" lon="3.06644">
        <ele>64.11</ele>
        <time>2014-01-19T11:26:24Z</time>
      </trkpt>
      <trkpt lat="49.72276" lon="3.06651">
        <ele>64.56</ele>
        <time>2014-01-19T11:26:29Z</time>
      </trkpt>
      <trkpt lat="49.72298" lon="3.06654">
        <ele>64.71</ele>
        <time>2014-01-19T11:26:33Z</time>
      </trkpt>
      <trkpt lat="49.72323" lon="3.06658">
        <ele>64.87</ele>
        <time>2014-01-19T11:26:38Z</time>
      </trkpt>
      <trkpt lat="49.72344" lon="3.06656">
        <ele>64.86</ele>
        <time>2014-01-19T11:30:26Z</time>
      </trkpt>
      <trkpt lat="49.7237" lon="3.06663">
        <ele>64.93</ele>
        <time>2014-01-19T11:30:40Z</time>
      </trkpt>
      <trkpt lat="49.72388" lon="3.06668">
        <ele>65.01</ele>
        <time>2014-01-19T11:30:49Z</time>
      </trkpt>
      <trkpt lat="49.72406" lon="3.06667">
        <ele>65</ele>
        <time>2014-01-19T11:30:57Z</time>
      </trkpt>
      <trkpt lat="49.72426" lon="3.06656">
        <ele>64.84</ele>
        <time>2014-01-19T11:31:06Z</time>
      </trkpt>
      <trkpt lat="49.72455" lon="3.06658">
        <ele>65.26</ele>
        <time>2014-01-19T11:31:15Z</time>
      </trkpt>
    </trkseg>
  </trk>
</gpx>